<?xml version="1.0" encoding="UTF-8"?>
<gpx xmlns="http://www.topografix.com/GPX/1/1" xmlns:xsi="http://www.w3.org/2001/XMLSchema-instance" version="1.1" xsi:schemaLocation="http://www.topografix.com/GPX/1/1 http://www.topografix.com/GPX/1/1/gpx.xsd">
  <metadata>
    <name>The Marshman Standard Distance</name>
  </metadata>
  <trk>
    <name>The Marshman Standard Distance</name>
    <trkseg>
      <trkpt lat="50.935573" lon="0.909884">
        <ele>1.604445</ele>
        <time>2022-05-22T09:00:00.000Z</time>
      </trkpt>
      <trkpt lat="50.935787" lon="0.909785">
        <ele>1.604433</ele>
        <time>2022-05-22T09:00:02.000Z</time>
      </trkpt>
      <trkpt lat="50.937372" lon="0.909186">
        <ele>1.488401</ele>
        <time>2022-05-22T09:00:20.000Z</time>
      </trkpt>
      <trkpt lat="50.9397" lon="0.90843">
        <ele>1.911447</ele>
        <time>2022-05-22T09:00:46.000Z</time>
      </trkpt>
      <trkpt lat="50.940344" lon="0.9082">
        <ele>2.279949</ele>
        <time>2022-05-22T09:00:53.000Z</time>
      </trkpt>
      <trkpt lat="50.940782" lon="0.90801">
        <ele>2.604067</ele>
        <time>2022-05-22T09:00:58.000Z</time>
      </trkpt>
      <trkpt lat="50.941017" lon="0.907847">
        <ele>2.782648</ele>
        <time>2022-05-22T09:01:01.000Z</time>
      </trkpt>
      <trkpt lat="50.941192" lon="0.907729">
        <ele>2.919112</ele>
        <time>2022-05-22T09:01:03.000Z</time>
      </trkpt>
      <trkpt lat="50.941422" lon="0.907539">
        <ele>3.103131</ele>
        <time>2022-05-22T09:01:06.000Z</time>
      </trkpt>
      <trkpt lat="50.941522" lon="0.907472">
        <ele>3.171583</ele>
        <time>2022-05-22T09:01:07.000Z</time>
      </trkpt>
      <trkpt lat="50.94177" lon="0.907343">
        <ele>3.290879</ele>
        <time>2022-05-22T09:01:10.000Z</time>
      </trkpt>
      <trkpt lat="50.94234" lon="0.907276">
        <ele>3.347978</ele>
        <time>2022-05-22T09:01:16.000Z</time>
      </trkpt>
      <trkpt lat="50.943183" lon="0.907318">
        <ele>3.432033</ele>
        <time>2022-05-22T09:01:25.000Z</time>
      </trkpt>
      <trkpt lat="50.943652" lon="0.907343">
        <ele>3.436614</ele>
        <time>2022-05-22T09:01:30.000Z</time>
      </trkpt>
      <trkpt lat="50.943922" lon="0.907428">
        <ele>3.40099</ele>
        <time>2022-05-22T09:01:33.000Z</time>
      </trkpt>
      <trkpt lat="50.94395" lon="0.907438">
        <ele>3.397226</ele>
        <time>2022-05-22T09:01:33.000Z</time>
      </trkpt>
      <trkpt lat="50.944247" lon="0.907591">
        <ele>3.35874</ele>
        <time>2022-05-22T09:01:36.000Z</time>
      </trkpt>
      <trkpt lat="50.944274" lon="0.907601">
        <ele>3.35501</ele>
        <time>2022-05-22T09:01:36.000Z</time>
      </trkpt>
      <trkpt lat="50.944642" lon="0.907876">
        <ele>3.305953</ele>
        <time>2022-05-22T09:01:41.000Z</time>
      </trkpt>
      <trkpt lat="50.944978" lon="0.908046">
        <ele>3.260894</ele>
        <time>2022-05-22T09:01:45.000Z</time>
      </trkpt>
      <trkpt lat="50.94526" lon="0.908237">
        <ele>3.229385</ele>
        <time>2022-05-22T09:01:48.000Z</time>
      </trkpt>
      <trkpt lat="50.945597" lon="0.90845">
        <ele>3.202405</ele>
        <time>2022-05-22T09:01:52.000Z</time>
      </trkpt>
      <trkpt lat="50.945857" lon="0.908629">
        <ele>3.181443</ele>
        <time>2022-05-22T09:01:55.000Z</time>
      </trkpt>
      <trkpt lat="50.945898" lon="0.908678">
        <ele>3.177749</ele>
        <time>2022-05-22T09:01:56.000Z</time>
      </trkpt>
      <trkpt lat="50.946245" lon="0.908895">
        <ele>3.150911</ele>
        <time>2022-05-22T09:02:00.000Z</time>
      </trkpt>
      <trkpt lat="50.947643" lon="0.909826">
        <ele>3.209783</ele>
        <time>2022-05-22T09:02:17.000Z</time>
      </trkpt>
      <trkpt lat="50.947937" lon="0.910007">
        <ele>3.246858</ele>
        <time>2022-05-22T09:02:21.000Z</time>
      </trkpt>
      <trkpt lat="50.948559" lon="0.910331">
        <ele>3.345466</ele>
        <time>2022-05-22T09:02:28.000Z</time>
      </trkpt>
      <trkpt lat="50.949206" lon="0.910678">
        <ele>3.674029</ele>
        <time>2022-05-22T09:02:36.000Z</time>
      </trkpt>
      <trkpt lat="50.950857" lon="0.911876">
        <ele>4.395105</ele>
        <time>2022-05-22T09:02:56.000Z</time>
      </trkpt>
      <trkpt lat="50.95108" lon="0.912042">
        <ele>4.467364</ele>
        <time>2022-05-22T09:02:59.000Z</time>
      </trkpt>
      <trkpt lat="50.951168" lon="0.912064">
        <ele>4.490377</ele>
        <time>2022-05-22T09:03:00.000Z</time>
      </trkpt>
      <trkpt lat="50.951209" lon="0.91206">
        <ele>4.503149</ele>
        <time>2022-05-22T09:03:00.000Z</time>
      </trkpt>
      <trkpt lat="50.95126" lon="0.912031">
        <ele>4.519571</ele>
        <time>2022-05-22T09:03:01.000Z</time>
      </trkpt>
      <trkpt lat="50.951284" lon="0.912006">
        <ele>4.528811</ele>
        <time>2022-05-22T09:03:01.000Z</time>
      </trkpt>
      <trkpt lat="50.951313" lon="0.91198">
        <ele>4.538096</ele>
        <time>2022-05-22T09:03:01.000Z</time>
      </trkpt>
      <trkpt lat="50.951355" lon="0.911952">
        <ele>4.547356</ele>
        <time>2022-05-22T09:03:02.000Z</time>
      </trkpt>
      <trkpt lat="50.951361" lon="0.911954">
        <ele>4.551102</ele>
        <time>2022-05-22T09:03:02.000Z</time>
      </trkpt>
      <trkpt lat="50.951407" lon="0.911956">
        <ele>4.563302</ele>
        <time>2022-05-22T09:03:03.000Z</time>
      </trkpt>
      <trkpt lat="50.951483" lon="0.912014">
        <ele>4.587247</ele>
        <time>2022-05-22T09:03:04.000Z</time>
      </trkpt>
      <trkpt lat="50.951506" lon="0.912069">
        <ele>4.599406</ele>
        <time>2022-05-22T09:03:04.000Z</time>
      </trkpt>
      <trkpt lat="50.951526" lon="0.912098">
        <ele>4.607277</ele>
        <time>2022-05-22T09:03:04.000Z</time>
      </trkpt>
      <trkpt lat="50.951574" lon="0.912217">
        <ele>4.633021</ele>
        <time>2022-05-22T09:03:05.000Z</time>
      </trkpt>
      <trkpt lat="50.951619" lon="0.912318">
        <ele>4.653457</ele>
        <time>2022-05-22T09:03:06.000Z</time>
      </trkpt>
      <trkpt lat="50.951668" lon="0.912443">
        <ele>4.681613</ele>
        <time>2022-05-22T09:03:07.000Z</time>
      </trkpt>
      <trkpt lat="50.952" lon="0.912719">
        <ele>4.664815</ele>
        <time>2022-05-22T09:03:11.000Z</time>
      </trkpt>
      <trkpt lat="50.952092" lon="0.912813">
        <ele>4.656115</ele>
        <time>2022-05-22T09:03:12.000Z</time>
      </trkpt>
      <trkpt lat="50.952608" lon="0.913278">
        <ele>4.613922</ele>
        <time>2022-05-22T09:03:19.000Z</time>
      </trkpt>
      <trkpt lat="50.952851" lon="0.913509">
        <ele>4.592927</ele>
        <time>2022-05-22T09:03:22.000Z</time>
      </trkpt>
      <trkpt lat="50.953391" lon="0.914089">
        <ele>4.591077</ele>
        <time>2022-05-22T09:03:29.000Z</time>
      </trkpt>
      <trkpt lat="50.953928" lon="0.914727">
        <ele>4.706716</ele>
        <time>2022-05-22T09:03:36.000Z</time>
      </trkpt>
      <trkpt lat="50.954175" lon="0.914938">
        <ele>4.754189</ele>
        <time>2022-05-22T09:03:39.000Z</time>
      </trkpt>
      <trkpt lat="50.954423" lon="0.915086">
        <ele>4.799776</ele>
        <time>2022-05-22T09:03:42.000Z</time>
      </trkpt>
      <trkpt lat="50.954581" lon="0.915199">
        <ele>4.83166</ele>
        <time>2022-05-22T09:03:44.000Z</time>
      </trkpt>
      <trkpt lat="50.954974" lon="0.915415">
        <ele>4.915761</ele>
        <time>2022-05-22T09:03:49.000Z</time>
      </trkpt>
      <trkpt lat="50.955676" lon="0.915799">
        <ele>5.101926</ele>
        <time>2022-05-22T09:03:57.000Z</time>
      </trkpt>
      <trkpt lat="50.955731" lon="0.915776">
        <ele>5.116287</ele>
        <time>2022-05-22T09:03:58.000Z</time>
      </trkpt>
      <trkpt lat="50.955807" lon="0.915681">
        <ele>5.14311</ele>
        <time>2022-05-22T09:03:59.000Z</time>
      </trkpt>
      <trkpt lat="50.955936" lon="0.915505">
        <ele>5.182852</ele>
        <time>2022-05-22T09:04:01.000Z</time>
      </trkpt>
      <trkpt lat="50.956165" lon="0.915731">
        <ele>5.252192</ele>
        <time>2022-05-22T09:04:04.000Z</time>
      </trkpt>
      <trkpt lat="50.956389" lon="0.915991">
        <ele>5.323482</ele>
        <time>2022-05-22T09:04:07.000Z</time>
      </trkpt>
      <trkpt lat="50.956442" lon="0.915999">
        <ele>5.312981</ele>
        <time>2022-05-22T09:04:08.000Z</time>
      </trkpt>
      <trkpt lat="50.956529" lon="0.916082">
        <ele>5.281967</ele>
        <time>2022-05-22T09:04:09.000Z</time>
      </trkpt>
      <trkpt lat="50.956668" lon="0.916159">
        <ele>5.242841</ele>
        <time>2022-05-22T09:04:11.000Z</time>
      </trkpt>
      <trkpt lat="50.957003" lon="0.916324">
        <ele>5.145818</ele>
        <time>2022-05-22T09:04:15.000Z</time>
      </trkpt>
      <trkpt lat="50.95719" lon="0.916482">
        <ele>5.082762</ele>
        <time>2022-05-22T09:04:17.000Z</time>
      </trkpt>
      <trkpt lat="50.957251" lon="0.916532">
        <ele>5.06759</ele>
        <time>2022-05-22T09:04:18.000Z</time>
      </trkpt>
      <trkpt lat="50.957337" lon="0.916607">
        <ele>5.037778</ele>
        <time>2022-05-22T09:04:19.000Z</time>
      </trkpt>
      <trkpt lat="50.957585" lon="0.916811">
        <ele>4.960695</ele>
        <time>2022-05-22T09:04:22.000Z</time>
      </trkpt>
      <trkpt lat="50.957845" lon="0.917104">
        <ele>4.87007</ele>
        <time>2022-05-22T09:04:26.000Z</time>
      </trkpt>
      <trkpt lat="50.957914" lon="0.917202">
        <ele>4.843992</ele>
        <time>2022-05-22T09:04:27.000Z</time>
      </trkpt>
      <trkpt lat="50.958049" lon="0.917374">
        <ele>4.766499</ele>
        <time>2022-05-22T09:04:29.000Z</time>
      </trkpt>
      <trkpt lat="50.958412" lon="0.917648">
        <ele>4.507094</ele>
        <time>2022-05-22T09:04:33.000Z</time>
      </trkpt>
      <trkpt lat="50.958583" lon="0.917792">
        <ele>4.376834</ele>
        <time>2022-05-22T09:04:35.000Z</time>
      </trkpt>
      <trkpt lat="50.958888" lon="0.918022">
        <ele>4.16342</ele>
        <time>2022-05-22T09:04:39.000Z</time>
      </trkpt>
      <trkpt lat="50.959381" lon="0.918405">
        <ele>3.816116</ele>
        <time>2022-05-22T09:04:45.000Z</time>
      </trkpt>
      <trkpt lat="50.95999" lon="0.91894">
        <ele>3.640228</ele>
        <time>2022-05-22T09:04:53.000Z</time>
      </trkpt>
      <trkpt lat="50.960106" lon="0.919076">
        <ele>3.633774</ele>
        <time>2022-05-22T09:04:55.000Z</time>
      </trkpt>
      <trkpt lat="50.960216" lon="0.919144">
        <ele>3.629311</ele>
        <time>2022-05-22T09:04:56.000Z</time>
      </trkpt>
      <trkpt lat="50.960265" lon="0.919191">
        <ele>3.626697</ele>
        <time>2022-05-22T09:04:57.000Z</time>
      </trkpt>
      <trkpt lat="50.960571" lon="0.919443">
        <ele>3.611886</ele>
        <time>2022-05-22T09:05:01.000Z</time>
      </trkpt>
      <trkpt lat="50.961076" lon="0.919812">
        <ele>3.588612</ele>
        <time>2022-05-22T09:05:07.000Z</time>
      </trkpt>
      <trkpt lat="50.961619" lon="0.920208">
        <ele>3.591739</ele>
        <time>2022-05-22T09:05:14.000Z</time>
      </trkpt>
      <trkpt lat="50.962326" lon="0.920708">
        <ele>3.604986</ele>
        <time>2022-05-22T09:05:23.000Z</time>
      </trkpt>
      <trkpt lat="50.963563" lon="0.9216">
        <ele>3.401693</ele>
        <time>2022-05-22T09:05:38.000Z</time>
      </trkpt>
      <trkpt lat="50.964784" lon="0.922517">
        <ele>3.058747</ele>
        <time>2022-05-22T09:05:53.000Z</time>
      </trkpt>
      <trkpt lat="50.964914" lon="0.922597">
        <ele>3.023214</ele>
        <time>2022-05-22T09:05:55.000Z</time>
      </trkpt>
      <trkpt lat="50.965429" lon="0.922795">
        <ele>2.889659</ele>
        <time>2022-05-22T09:06:01.000Z</time>
      </trkpt>
      <trkpt lat="50.965558" lon="0.922824">
        <ele>2.858214</ele>
        <time>2022-05-22T09:06:02.000Z</time>
      </trkpt>
      <trkpt lat="50.965606" lon="0.922822">
        <ele>2.844483</ele>
        <time>2022-05-22T09:06:03.000Z</time>
      </trkpt>
      <trkpt lat="50.967995" lon="0.922926">
        <ele>2.394009</ele>
        <time>2022-05-22T09:06:30.000Z</time>
      </trkpt>
      <trkpt lat="50.969006" lon="0.923092">
        <ele>2.241738</ele>
        <time>2022-05-22T09:06:41.000Z</time>
      </trkpt>
      <trkpt lat="50.969252" lon="0.92314">
        <ele>2.20512</ele>
        <time>2022-05-22T09:06:44.000Z</time>
      </trkpt>
      <trkpt lat="50.969393" lon="0.92315">
        <ele>2.184793</ele>
        <time>2022-05-22T09:06:46.000Z</time>
      </trkpt>
      <trkpt lat="50.969531" lon="0.923173">
        <ele>2.165674</ele>
        <time>2022-05-22T09:06:48.000Z</time>
      </trkpt>
      <trkpt lat="50.970267" lon="0.923175">
        <ele>2.213025</ele>
        <time>2022-05-22T09:06:56.000Z</time>
      </trkpt>
      <trkpt lat="50.973279" lon="0.922406">
        <ele>2.834545</ele>
        <time>2022-05-22T09:07:30.000Z</time>
      </trkpt>
      <trkpt lat="50.97354" lon="0.922319">
        <ele>2.825927</ele>
        <time>2022-05-22T09:07:33.000Z</time>
      </trkpt>
      <trkpt lat="50.974111" lon="0.922055">
        <ele>2.766252</ele>
        <time>2022-05-22T09:07:40.000Z</time>
      </trkpt>
      <trkpt lat="50.976131" lon="0.921045">
        <ele>2.350722</ele>
        <time>2022-05-22T09:08:04.000Z</time>
      </trkpt>
      <trkpt lat="50.977265" lon="0.920583">
        <ele>1.968542</ele>
        <time>2022-05-22T09:08:17.000Z</time>
      </trkpt>
      <trkpt lat="50.978129" lon="0.920346">
        <ele>1.619763</ele>
        <time>2022-05-22T09:08:27.000Z</time>
      </trkpt>
      <trkpt lat="50.978913" lon="0.920418">
        <ele>1.406586</ele>
        <time>2022-05-22T09:08:36.000Z</time>
      </trkpt>
      <trkpt lat="50.97931" lon="0.92053">
        <ele>1.355036</ele>
        <time>2022-05-22T09:08:40.000Z</time>
      </trkpt>
      <trkpt lat="50.979821" lon="0.920713">
        <ele>1.287194</ele>
        <time>2022-05-22T09:08:46.000Z</time>
      </trkpt>
      <trkpt lat="50.980869" lon="0.921067">
        <ele>1.437091</ele>
        <time>2022-05-22T09:08:58.000Z</time>
      </trkpt>
      <trkpt lat="50.982182" lon="0.921393">
        <ele>1.940031</ele>
        <time>2022-05-22T09:09:13.000Z</time>
      </trkpt>
      <trkpt lat="50.983045" lon="0.92153">
        <ele>2.12564</ele>
        <time>2022-05-22T09:09:23.000Z</time>
      </trkpt>
      <trkpt lat="50.983629" lon="0.92164">
        <ele>2.252724</ele>
        <time>2022-05-22T09:09:30.000Z</time>
      </trkpt>
      <trkpt lat="50.984665" lon="0.921835">
        <ele>2.096574</ele>
        <time>2022-05-22T09:09:42.000Z</time>
      </trkpt>
      <trkpt lat="50.984907" lon="0.921873">
        <ele>2.028826</ele>
        <time>2022-05-22T09:09:45.000Z</time>
      </trkpt>
      <trkpt lat="50.984974" lon="0.921365">
        <ele>1.940256</ele>
        <time>2022-05-22T09:09:49.000Z</time>
      </trkpt>
      <trkpt lat="50.985465" lon="0.918661">
        <ele>1.392248</ele>
        <time>2022-05-22T09:10:09.000Z</time>
      </trkpt>
      <trkpt lat="50.985829" lon="0.916668">
        <ele>1.224534</ele>
        <time>2022-05-22T09:10:24.000Z</time>
      </trkpt>
      <trkpt lat="50.985958" lon="0.915867">
        <ele>1.214953</ele>
        <time>2022-05-22T09:10:30.000Z</time>
      </trkpt>
      <trkpt lat="50.986083" lon="0.915175">
        <ele>1.209105</ele>
        <time>2022-05-22T09:10:35.000Z</time>
      </trkpt>
      <trkpt lat="50.986116" lon="0.915019">
        <ele>1.230777</ele>
        <time>2022-05-22T09:10:36.000Z</time>
      </trkpt>
      <trkpt lat="50.986442" lon="0.913235">
        <ele>1.483237</ele>
        <time>2022-05-22T09:10:49.000Z</time>
      </trkpt>
      <trkpt lat="50.988027" lon="0.904368">
        <ele>2.548827</ele>
        <time>2022-05-22T09:11:54.000Z</time>
      </trkpt>
      <trkpt lat="50.988194" lon="0.903263">
        <ele>2.578683</ele>
        <time>2022-05-22T09:12:02.000Z</time>
      </trkpt>
      <trkpt lat="50.988501" lon="0.901542">
        <ele>2.598729</ele>
        <time>2022-05-22T09:12:15.000Z</time>
      </trkpt>
      <trkpt lat="50.989045" lon="0.898495">
        <ele>2.575916</ele>
        <time>2022-05-22T09:12:37.000Z</time>
      </trkpt>
      <trkpt lat="50.989108" lon="0.898242">
        <ele>2.576169</ele>
        <time>2022-05-22T09:12:39.000Z</time>
      </trkpt>
      <trkpt lat="50.989172" lon="0.897928">
        <ele>2.576462</ele>
        <time>2022-05-22T09:12:41.000Z</time>
      </trkpt>
      <trkpt lat="50.989717" lon="0.896165">
        <ele>2.578196</ele>
        <time>2022-05-22T09:12:55.000Z</time>
      </trkpt>
      <trkpt lat="50.989771" lon="0.896046">
        <ele>2.581468</ele>
        <time>2022-05-22T09:12:56.000Z</time>
      </trkpt>
      <trkpt lat="50.989828" lon="0.89587">
        <ele>2.594488</ele>
        <time>2022-05-22T09:12:57.000Z</time>
      </trkpt>
      <trkpt lat="50.990045" lon="0.895312">
        <ele>2.638836</ele>
        <time>2022-05-22T09:13:02.000Z</time>
      </trkpt>
      <trkpt lat="50.990159" lon="0.895027">
        <ele>2.661384</ele>
        <time>2022-05-22T09:13:04.000Z</time>
      </trkpt>
      <trkpt lat="50.99022" lon="0.894856">
        <ele>2.673964</ele>
        <time>2022-05-22T09:13:05.000Z</time>
      </trkpt>
      <trkpt lat="50.990457" lon="0.894223">
        <ele>2.723551</ele>
        <time>2022-05-22T09:13:10.000Z</time>
      </trkpt>
      <trkpt lat="50.990997" lon="0.892572">
        <ele>2.847443</ele>
        <time>2022-05-22T09:13:23.000Z</time>
      </trkpt>
      <trkpt lat="50.991396" lon="0.891369">
        <ele>2.935517</ele>
        <time>2022-05-22T09:13:33.000Z</time>
      </trkpt>
      <trkpt lat="50.991499" lon="0.891048">
        <ele>2.958158</ele>
        <time>2022-05-22T09:13:36.000Z</time>
      </trkpt>
      <trkpt lat="50.99179" lon="0.890074">
        <ele>2.996045</ele>
        <time>2022-05-22T09:13:44.000Z</time>
      </trkpt>
      <trkpt lat="50.992072" lon="0.889215">
        <ele>3.030264</ele>
        <time>2022-05-22T09:13:51.000Z</time>
      </trkpt>
      <trkpt lat="50.992378" lon="0.888344">
        <ele>3.034206</ele>
        <time>2022-05-22T09:13:58.000Z</time>
      </trkpt>
      <trkpt lat="50.993385" lon="0.885843">
        <ele>2.690396</ele>
        <time>2022-05-22T09:14:19.000Z</time>
      </trkpt>
      <trkpt lat="50.995271" lon="0.881602">
        <ele>1.975112</ele>
        <time>2022-05-22T09:14:55.000Z</time>
      </trkpt>
      <trkpt lat="50.996772" lon="0.877872">
        <ele>2.242556</ele>
        <time>2022-05-22T09:15:26.000Z</time>
      </trkpt>
      <trkpt lat="50.997541" lon="0.876111">
        <ele>2.596848</ele>
        <time>2022-05-22T09:15:41.000Z</time>
      </trkpt>
      <trkpt lat="50.997901" lon="0.875352">
        <ele>2.688297</ele>
        <time>2022-05-22T09:15:48.000Z</time>
      </trkpt>
      <trkpt lat="50.997919" lon="0.875311">
        <ele>2.694578</ele>
        <time>2022-05-22T09:15:48.000Z</time>
      </trkpt>
      <trkpt lat="50.999564" lon="0.87178">
        <ele>2.312449</ele>
        <time>2022-05-22T09:16:19.000Z</time>
      </trkpt>
      <trkpt lat="51.000833" lon="0.868656">
        <ele>1.942324</ele>
        <time>2022-05-22T09:16:45.000Z</time>
      </trkpt>
      <trkpt lat="51.001351" lon="0.867708">
        <ele>1.919667</ele>
        <time>2022-05-22T09:16:54.000Z</time>
      </trkpt>
      <trkpt lat="51.001593" lon="0.867274">
        <ele>1.928511</ele>
        <time>2022-05-22T09:16:58.000Z</time>
      </trkpt>
      <trkpt lat="51.001638" lon="0.867183">
        <ele>1.938527</ele>
        <time>2022-05-22T09:16:59.000Z</time>
      </trkpt>
      <trkpt lat="51.002316" lon="0.86597">
        <ele>2.079083</ele>
        <time>2022-05-22T09:17:10.000Z</time>
      </trkpt>
      <trkpt lat="51.003583" lon="0.863695">
        <ele>2.176234</ele>
        <time>2022-05-22T09:17:31.000Z</time>
      </trkpt>
      <trkpt lat="51.004157" lon="0.862518">
        <ele>2.144486</ele>
        <time>2022-05-22T09:17:41.000Z</time>
      </trkpt>
      <trkpt lat="51.004465" lon="0.861953">
        <ele>2.106108</ele>
        <time>2022-05-22T09:17:46.000Z</time>
      </trkpt>
      <trkpt lat="51.005049" lon="0.860914">
        <ele>2.041394</ele>
        <time>2022-05-22T09:17:56.000Z</time>
      </trkpt>
      <trkpt lat="51.006259" lon="0.859247">
        <ele>2.649283</ele>
        <time>2022-05-22T09:18:14.000Z</time>
      </trkpt>
      <trkpt lat="51.006355" lon="0.859107">
        <ele>2.700624</ele>
        <time>2022-05-22T09:18:15.000Z</time>
      </trkpt>
      <trkpt lat="51.006478" lon="0.858874">
        <ele>2.710376</ele>
        <time>2022-05-22T09:18:17.000Z</time>
      </trkpt>
      <trkpt lat="51.006722" lon="0.858586">
        <ele>2.687683</ele>
        <time>2022-05-22T09:18:20.000Z</time>
      </trkpt>
      <trkpt lat="51.00681" lon="0.858468">
        <ele>2.67915</ele>
        <time>2022-05-22T09:18:21.000Z</time>
      </trkpt>
      <trkpt lat="51.006877" lon="0.858363">
        <ele>2.672617</ele>
        <time>2022-05-22T09:18:22.000Z</time>
      </trkpt>
      <trkpt lat="51.006939" lon="0.858224">
        <ele>2.663443</ele>
        <time>2022-05-22T09:18:23.000Z</time>
      </trkpt>
      <trkpt lat="51.006948" lon="0.85816">
        <ele>2.661175</ele>
        <time>2022-05-22T09:18:23.000Z</time>
      </trkpt>
      <trkpt lat="51.006959" lon="0.858114">
        <ele>2.65893</ele>
        <time>2022-05-22T09:18:23.000Z</time>
      </trkpt>
      <trkpt lat="51.006991" lon="0.858065">
        <ele>2.655806</ele>
        <time>2022-05-22T09:18:23.000Z</time>
      </trkpt>
      <trkpt lat="51.007014" lon="0.858021">
        <ele>2.652657</ele>
        <time>2022-05-22T09:18:23.000Z</time>
      </trkpt>
      <trkpt lat="51.007062" lon="0.858009">
        <ele>2.649459</ele>
        <time>2022-05-22T09:18:24.000Z</time>
      </trkpt>
      <trkpt lat="51.007098" lon="0.858003">
        <ele>2.646197</ele>
        <time>2022-05-22T09:18:24.000Z</time>
      </trkpt>
      <trkpt lat="51.007176" lon="0.857948">
        <ele>2.640526</ele>
        <time>2022-05-22T09:18:25.000Z</time>
      </trkpt>
      <trkpt lat="51.007308" lon="0.857755">
        <ele>2.626249</ele>
        <time>2022-05-22T09:18:27.000Z</time>
      </trkpt>
      <trkpt lat="51.007488" lon="0.857455">
        <ele>2.606949</ele>
        <time>2022-05-22T09:18:30.000Z</time>
      </trkpt>
      <trkpt lat="51.008187" lon="0.856295">
        <ele>2.351305</ele>
        <time>2022-05-22T09:18:41.000Z</time>
      </trkpt>
      <trkpt lat="51.008724" lon="0.855688">
        <ele>2.141292</ele>
        <time>2022-05-22T09:18:48.000Z</time>
      </trkpt>
      <trkpt lat="51.00938" lon="0.855036">
        <ele>2.079111</ele>
        <time>2022-05-22T09:18:57.000Z</time>
      </trkpt>
      <trkpt lat="51.009804" lon="0.854283">
        <ele>2.20625</ele>
        <time>2022-05-22T09:19:04.000Z</time>
      </trkpt>
      <trkpt lat="51.009909" lon="0.854005">
        <ele>2.246415</ele>
        <time>2022-05-22T09:19:06.000Z</time>
      </trkpt>
      <trkpt lat="51.009879" lon="0.85399">
        <ele>2.252056</ele>
        <time>2022-05-22T09:19:06.000Z</time>
      </trkpt>
      <trkpt lat="51.009881" lon="0.853822">
        <ele>2.273413</ele>
        <time>2022-05-22T09:19:07.000Z</time>
      </trkpt>
      <trkpt lat="51.009891" lon="0.853779">
        <ele>2.279203</ele>
        <time>2022-05-22T09:19:07.000Z</time>
      </trkpt>
      <trkpt lat="51.009917" lon="0.85375">
        <ele>2.284778</ele>
        <time>2022-05-22T09:19:07.000Z</time>
      </trkpt>
      <trkpt lat="51.009934" lon="0.853735">
        <ele>2.290446</ele>
        <time>2022-05-22T09:19:07.000Z</time>
      </trkpt>
      <trkpt lat="51.009973" lon="0.853751">
        <ele>2.296054</ele>
        <time>2022-05-22T09:19:07.000Z</time>
      </trkpt>
      <trkpt lat="51.01" lon="0.853764">
        <ele>2.301791</ele>
        <time>2022-05-22T09:19:07.000Z</time>
      </trkpt>
      <trkpt lat="51.010186" lon="0.853335">
        <ele>2.366235</ele>
        <time>2022-05-22T09:19:11.000Z</time>
      </trkpt>
      <trkpt lat="51.010381" lon="0.853039">
        <ele>2.344456</ele>
        <time>2022-05-22T09:19:14.000Z</time>
      </trkpt>
      <trkpt lat="51.010486" lon="0.85289">
        <ele>2.334347</ele>
        <time>2022-05-22T09:19:16.000Z</time>
      </trkpt>
      <trkpt lat="51.011364" lon="0.851589">
        <ele>2.237439</ele>
        <time>2022-05-22T09:19:29.000Z</time>
      </trkpt>
      <trkpt lat="51.011743" lon="0.851023">
        <ele>2.161177</ele>
        <time>2022-05-22T09:19:35.000Z</time>
      </trkpt>
      <trkpt lat="51.011787" lon="0.850959">
        <ele>2.152317</ele>
        <time>2022-05-22T09:19:36.000Z</time>
      </trkpt>
      <trkpt lat="51.011788" lon="0.850958">
        <ele>2.151469</ele>
        <time>2022-05-22T09:19:36.000Z</time>
      </trkpt>
      <trkpt lat="51.014442" lon="0.847218">
        <ele>1.691626</ele>
        <time>2022-05-22T09:20:15.000Z</time>
      </trkpt>
      <trkpt lat="51.017689" lon="0.842894">
        <ele>1.937771</ele>
        <time>2022-05-22T09:21:02.000Z</time>
      </trkpt>
      <trkpt lat="51.01933" lon="0.840556">
        <ele>1.949165</ele>
        <time>2022-05-22T09:21:27.000Z</time>
      </trkpt>
      <trkpt lat="51.020178" lon="0.839316">
        <ele>2.087181</ele>
        <time>2022-05-22T09:21:40.000Z</time>
      </trkpt>
      <trkpt lat="51.020379" lon="0.839028">
        <ele>2.138191</ele>
        <time>2022-05-22T09:21:43.000Z</time>
      </trkpt>
      <trkpt lat="51.021639" lon="0.837214">
        <ele>2.356325</ele>
        <time>2022-05-22T09:22:02.000Z</time>
      </trkpt>
      <trkpt lat="51.022048" lon="0.836683">
        <ele>2.399941</ele>
        <time>2022-05-22T09:22:08.000Z</time>
      </trkpt>
      <trkpt lat="51.022192" lon="0.836464">
        <ele>2.416827</ele>
        <time>2022-05-22T09:22:10.000Z</time>
      </trkpt>
      <trkpt lat="51.022486" lon="0.835822">
        <ele>2.319168</ele>
        <time>2022-05-22T09:22:16.000Z</time>
      </trkpt>
      <trkpt lat="51.022654" lon="0.834903">
        <ele>2.129903</ele>
        <time>2022-05-22T09:22:23.000Z</time>
      </trkpt>
      <trkpt lat="51.022932" lon="0.834072">
        <ele>1.946502</ele>
        <time>2022-05-22T09:22:30.000Z</time>
      </trkpt>
      <trkpt lat="51.022977" lon="0.833952">
        <ele>1.921961</ele>
        <time>2022-05-22T09:22:31.000Z</time>
      </trkpt>
      <trkpt lat="51.023013" lon="0.833901">
        <ele>1.904092</ele>
        <time>2022-05-22T09:22:32.000Z</time>
      </trkpt>
      <trkpt lat="51.023095" lon="0.833822">
        <ele>1.875506</ele>
        <time>2022-05-22T09:22:33.000Z</time>
      </trkpt>
      <trkpt lat="51.023113" lon="0.833792">
        <ele>1.867154</ele>
        <time>2022-05-22T09:22:33.000Z</time>
      </trkpt>
      <trkpt lat="51.023202" lon="0.833752">
        <ele>1.85803</ele>
        <time>2022-05-22T09:22:34.000Z</time>
      </trkpt>
      <trkpt lat="51.024394" lon="0.833253">
        <ele>1.71988</ele>
        <time>2022-05-22T09:22:48.000Z</time>
      </trkpt>
      <trkpt lat="51.024668" lon="0.833086">
        <ele>1.68683</ele>
        <time>2022-05-22T09:22:51.000Z</time>
      </trkpt>
      <trkpt lat="51.024924" lon="0.832764">
        <ele>1.684286</ele>
        <time>2022-05-22T09:22:55.000Z</time>
      </trkpt>
      <trkpt lat="51.025281" lon="0.832077">
        <ele>1.744428</ele>
        <time>2022-05-22T09:23:01.000Z</time>
      </trkpt>
      <trkpt lat="51.025326" lon="0.832011">
        <ele>1.750686</ele>
        <time>2022-05-22T09:23:02.000Z</time>
      </trkpt>
      <trkpt lat="51.025367" lon="0.831976">
        <ele>1.755919</ele>
        <time>2022-05-22T09:23:03.000Z</time>
      </trkpt>
      <trkpt lat="51.025445" lon="0.831884">
        <ele>1.765597</ele>
        <time>2022-05-22T09:23:04.000Z</time>
      </trkpt>
      <trkpt lat="51.025545" lon="0.831814">
        <ele>1.777614</ele>
        <time>2022-05-22T09:23:05.000Z</time>
      </trkpt>
      <trkpt lat="51.025907" lon="0.831676">
        <ele>1.818388</ele>
        <time>2022-05-22T09:23:09.000Z</time>
      </trkpt>
      <trkpt lat="51.026067" lon="0.831487">
        <ele>1.839976</ele>
        <time>2022-05-22T09:23:11.000Z</time>
      </trkpt>
      <trkpt lat="51.026351" lon="0.830658">
        <ele>1.810469</ele>
        <time>2022-05-22T09:23:18.000Z</time>
      </trkpt>
      <trkpt lat="51.0265" lon="0.830346">
        <ele>1.778066</ele>
        <time>2022-05-22T09:23:21.000Z</time>
      </trkpt>
      <trkpt lat="51.02705" lon="0.829491">
        <ele>1.675869</ele>
        <time>2022-05-22T09:23:30.000Z</time>
      </trkpt>
      <trkpt lat="51.027179" lon="0.829252">
        <ele>1.650216</ele>
        <time>2022-05-22T09:23:32.000Z</time>
      </trkpt>
      <trkpt lat="51.027313" lon="0.829005">
        <ele>1.624732</ele>
        <time>2022-05-22T09:23:34.000Z</time>
      </trkpt>
      <trkpt lat="51.027763" lon="0.828007">
        <ele>1.608111</ele>
        <time>2022-05-22T09:23:43.000Z</time>
      </trkpt>
      <trkpt lat="51.028059" lon="0.827636">
        <ele>1.600153</ele>
        <time>2022-05-22T09:23:47.000Z</time>
      </trkpt>
      <trkpt lat="51.02892" lon="0.82717">
        <ele>1.630882</ele>
        <time>2022-05-22T09:23:57.000Z</time>
      </trkpt>
      <trkpt lat="51.029285" lon="0.827043">
        <ele>1.691151</ele>
        <time>2022-05-22T09:24:01.000Z</time>
      </trkpt>
      <trkpt lat="51.029404" lon="0.826993">
        <ele>1.712225</ele>
        <time>2022-05-22T09:24:02.000Z</time>
      </trkpt>
      <trkpt lat="51.029691" lon="0.82686">
        <ele>1.759772</ele>
        <time>2022-05-22T09:24:05.000Z</time>
      </trkpt>
      <trkpt lat="51.029999" lon="0.826531">
        <ele>1.821005</ele>
        <time>2022-05-22T09:24:09.000Z</time>
      </trkpt>
      <trkpt lat="51.030309" lon="0.826058">
        <ele>1.880245</ele>
        <time>2022-05-22T09:24:14.000Z</time>
      </trkpt>
      <trkpt lat="51.030449" lon="0.825735">
        <ele>1.878181</ele>
        <time>2022-05-22T09:24:17.000Z</time>
      </trkpt>
      <trkpt lat="51.03063" lon="0.825389">
        <ele>1.875937</ele>
        <time>2022-05-22T09:24:20.000Z</time>
      </trkpt>
      <trkpt lat="51.030867" lon="0.824684">
        <ele>1.871882</ele>
        <time>2022-05-22T09:24:26.000Z</time>
      </trkpt>
      <trkpt lat="51.030999" lon="0.824297">
        <ele>1.869657</ele>
        <time>2022-05-22T09:24:29.000Z</time>
      </trkpt>
      <trkpt lat="51.031128" lon="0.823843">
        <ele>1.867145</ele>
        <time>2022-05-22T09:24:32.000Z</time>
      </trkpt>
      <trkpt lat="51.03136" lon="0.823161">
        <ele>1.808805</ele>
        <time>2022-05-22T09:24:37.000Z</time>
      </trkpt>
      <trkpt lat="51.031831" lon="0.822136">
        <ele>1.686427</ele>
        <time>2022-05-22T09:24:46.000Z</time>
      </trkpt>
      <trkpt lat="51.032393" lon="0.82074">
        <ele>1.602331</ele>
        <time>2022-05-22T09:24:58.000Z</time>
      </trkpt>
      <trkpt lat="51.0333" lon="0.819055">
        <ele>1.643093</ele>
        <time>2022-05-22T09:25:14.000Z</time>
      </trkpt>
      <trkpt lat="51.03331" lon="0.81901">
        <ele>1.655504</ele>
        <time>2022-05-22T09:25:14.000Z</time>
      </trkpt>
      <trkpt lat="51.033356" lon="0.818882">
        <ele>1.694437</ele>
        <time>2022-05-22T09:25:15.000Z</time>
      </trkpt>
      <trkpt lat="51.033387" lon="0.818759">
        <ele>1.7302</ele>
        <time>2022-05-22T09:25:16.000Z</time>
      </trkpt>
      <trkpt lat="51.033418" lon="0.818671">
        <ele>1.752812</ele>
        <time>2022-05-22T09:25:17.000Z</time>
      </trkpt>
      <trkpt lat="51.033567" lon="0.816787">
        <ele>2.25064</ele>
        <time>2022-05-22T09:25:30.000Z</time>
      </trkpt>
      <trkpt lat="51.033597" lon="0.816474">
        <ele>2.332129</ele>
        <time>2022-05-22T09:25:32.000Z</time>
      </trkpt>
      <trkpt lat="51.033609" lon="0.816172">
        <ele>2.403101</ele>
        <time>2022-05-22T09:25:34.000Z</time>
      </trkpt>
      <trkpt lat="51.033629" lon="0.815763">
        <ele>2.470765</ele>
        <time>2022-05-22T09:25:37.000Z</time>
      </trkpt>
      <trkpt lat="51.033628" lon="0.815248">
        <ele>2.555559</ele>
        <time>2022-05-22T09:25:41.000Z</time>
      </trkpt>
      <trkpt lat="51.033736" lon="0.814366">
        <ele>2.70584</ele>
        <time>2022-05-22T09:25:47.000Z</time>
      </trkpt>
      <trkpt lat="51.034056" lon="0.812914">
        <ele>2.849857</ele>
        <time>2022-05-22T09:25:58.000Z</time>
      </trkpt>
      <trkpt lat="51.034113" lon="0.812099">
        <ele>2.835015</ele>
        <time>2022-05-22T09:26:04.000Z</time>
      </trkpt>
      <trkpt lat="51.034054" lon="0.811162">
        <ele>2.817973</ele>
        <time>2022-05-22T09:26:11.000Z</time>
      </trkpt>
      <trkpt lat="51.034047" lon="0.811114">
        <ele>2.817183</ele>
        <time>2022-05-22T09:26:11.000Z</time>
      </trkpt>
      <trkpt lat="51.034055" lon="0.810549">
        <ele>2.786894</ele>
        <time>2022-05-22T09:26:15.000Z</time>
      </trkpt>
      <trkpt lat="51.034153" lon="0.809394">
        <ele>2.543636</ele>
        <time>2022-05-22T09:26:23.000Z</time>
      </trkpt>
      <trkpt lat="51.034232" lon="0.808999">
        <ele>2.460972</ele>
        <time>2022-05-22T09:26:26.000Z</time>
      </trkpt>
      <trkpt lat="51.034254" lon="0.808858">
        <ele>2.430854</ele>
        <time>2022-05-22T09:26:27.000Z</time>
      </trkpt>
      <trkpt lat="51.034718" lon="0.807718">
        <ele>2.19589</ele>
        <time>2022-05-22T09:26:36.000Z</time>
      </trkpt>
      <trkpt lat="51.03483" lon="0.807247">
        <ele>2.160424</ele>
        <time>2022-05-22T09:26:40.000Z</time>
      </trkpt>
      <trkpt lat="51.03481" lon="0.80689">
        <ele>2.133487</ele>
        <time>2022-05-22T09:26:43.000Z</time>
      </trkpt>
      <trkpt lat="51.034642" lon="0.805667">
        <ele>2.042968</ele>
        <time>2022-05-22T09:26:52.000Z</time>
      </trkpt>
      <trkpt lat="51.034062" lon="0.80373">
        <ele>2.035063</ele>
        <time>2022-05-22T09:27:07.000Z</time>
      </trkpt>
      <trkpt lat="51.033554" lon="0.801625">
        <ele>2.030559</ele>
        <time>2022-05-22T09:27:23.000Z</time>
      </trkpt>
      <trkpt lat="51.033128" lon="0.80041">
        <ele>2.007227</ele>
        <time>2022-05-22T09:27:33.000Z</time>
      </trkpt>
      <trkpt lat="51.032731" lon="0.799022">
        <ele>2.101436</ele>
        <time>2022-05-22T09:27:44.000Z</time>
      </trkpt>
      <trkpt lat="51.032347" lon="0.797037">
        <ele>2.293678</ele>
        <time>2022-05-22T09:27:59.000Z</time>
      </trkpt>
      <trkpt lat="51.032188" lon="0.796411">
        <ele>2.383617</ele>
        <time>2022-05-22T09:28:04.000Z</time>
      </trkpt>
      <trkpt lat="51.031521" lon="0.794309">
        <ele>2.70154</ele>
        <time>2022-05-22T09:28:20.000Z</time>
      </trkpt>
      <trkpt lat="51.031411" lon="0.794141">
        <ele>2.738861</ele>
        <time>2022-05-22T09:28:22.000Z</time>
      </trkpt>
      <trkpt lat="51.031349" lon="0.794106">
        <ele>2.752773</ele>
        <time>2022-05-22T09:28:23.000Z</time>
      </trkpt>
      <trkpt lat="51.031279" lon="0.794062">
        <ele>2.772207</ele>
        <time>2022-05-22T09:28:24.000Z</time>
      </trkpt>
      <trkpt lat="51.030909" lon="0.794114">
        <ele>2.85943</ele>
        <time>2022-05-22T09:28:28.000Z</time>
      </trkpt>
      <trkpt lat="51.030754" lon="0.794123">
        <ele>2.899019</ele>
        <time>2022-05-22T09:28:30.000Z</time>
      </trkpt>
      <trkpt lat="51.030554" lon="0.794021">
        <ele>2.948653</ele>
        <time>2022-05-22T09:28:32.000Z</time>
      </trkpt>
      <trkpt lat="51.03032" lon="0.793799">
        <ele>3.014034</ele>
        <time>2022-05-22T09:28:35.000Z</time>
      </trkpt>
      <trkpt lat="51.029495" lon="0.792622">
        <ele>3.285044</ele>
        <time>2022-05-22T09:28:47.000Z</time>
      </trkpt>
      <trkpt lat="51.02859" lon="0.791348">
        <ele>3.510109</ele>
        <time>2022-05-22T09:29:00.000Z</time>
      </trkpt>
      <trkpt lat="51.028535" lon="0.791258">
        <ele>3.514833</ele>
        <time>2022-05-22T09:29:01.000Z</time>
      </trkpt>
      <trkpt lat="51.028344" lon="0.790966">
        <ele>3.531402</ele>
        <time>2022-05-22T09:29:04.000Z</time>
      </trkpt>
      <trkpt lat="51.028307" lon="0.790839">
        <ele>3.536982</ele>
        <time>2022-05-22T09:29:05.000Z</time>
      </trkpt>
      <trkpt lat="51.028306" lon="0.790791">
        <ele>3.538935</ele>
        <time>2022-05-22T09:29:05.000Z</time>
      </trkpt>
      <trkpt lat="51.028315" lon="0.790748">
        <ele>3.540958</ele>
        <time>2022-05-22T09:29:05.000Z</time>
      </trkpt>
      <trkpt lat="51.028466" lon="0.79049">
        <ele>3.55414</ele>
        <time>2022-05-22T09:29:07.000Z</time>
      </trkpt>
      <trkpt lat="51.028538" lon="0.790389">
        <ele>3.55987</ele>
        <time>2022-05-22T09:29:08.000Z</time>
      </trkpt>
      <trkpt lat="51.0285" lon="0.79035">
        <ele>3.562605</ele>
        <time>2022-05-22T09:29:09.000Z</time>
      </trkpt>
      <trkpt lat="51.028134" lon="0.789862">
        <ele>3.591849</ele>
        <time>2022-05-22T09:29:14.000Z</time>
      </trkpt>
      <trkpt lat="51.027803" lon="0.789395">
        <ele>3.55322</ele>
        <time>2022-05-22T09:29:19.000Z</time>
      </trkpt>
      <trkpt lat="51.027518" lon="0.78895">
        <ele>3.502087</ele>
        <time>2022-05-22T09:29:23.000Z</time>
      </trkpt>
      <trkpt lat="51.027344" lon="0.788578">
        <ele>3.464334</ele>
        <time>2022-05-22T09:29:26.000Z</time>
      </trkpt>
      <trkpt lat="51.027256" lon="0.788345">
        <ele>3.44282</ele>
        <time>2022-05-22T09:29:28.000Z</time>
      </trkpt>
      <trkpt lat="51.026998" lon="0.787595">
        <ele>3.373855</ele>
        <time>2022-05-22T09:29:34.000Z</time>
      </trkpt>
      <trkpt lat="51.025726" lon="0.783929">
        <ele>2.738122</ele>
        <time>2022-05-22T09:30:03.000Z</time>
      </trkpt>
      <trkpt lat="51.025505" lon="0.783437">
        <ele>2.655054</ele>
        <time>2022-05-22T09:30:07.000Z</time>
      </trkpt>
      <trkpt lat="51.025341" lon="0.783206">
        <ele>2.606327</ele>
        <time>2022-05-22T09:30:09.000Z</time>
      </trkpt>
      <trkpt lat="51.025038" lon="0.782964">
        <ele>2.532154</ele>
        <time>2022-05-22T09:30:13.000Z</time>
      </trkpt>
      <trkpt lat="51.024041" lon="0.782473">
        <ele>2.41716</ele>
        <time>2022-05-22T09:30:25.000Z</time>
      </trkpt>
      <trkpt lat="51.023082" lon="0.781982">
        <ele>2.337478</ele>
        <time>2022-05-22T09:30:36.000Z</time>
      </trkpt>
      <trkpt lat="51.022809" lon="0.781845">
        <ele>2.347887</ele>
        <time>2022-05-22T09:30:39.000Z</time>
      </trkpt>
      <trkpt lat="51.022664" lon="0.781768">
        <ele>2.353672</ele>
        <time>2022-05-22T09:30:41.000Z</time>
      </trkpt>
      <trkpt lat="51.022169" lon="0.781509">
        <ele>2.371702</ele>
        <time>2022-05-22T09:30:47.000Z</time>
      </trkpt>
      <trkpt lat="51.020811" lon="0.780833">
        <ele>2.489311</ele>
        <time>2022-05-22T09:31:03.000Z</time>
      </trkpt>
      <trkpt lat="51.020243" lon="0.780237">
        <ele>2.571713</ele>
        <time>2022-05-22T09:31:11.000Z</time>
      </trkpt>
      <trkpt lat="51.020043" lon="0.780116">
        <ele>2.597226</ele>
        <time>2022-05-22T09:31:13.000Z</time>
      </trkpt>
      <trkpt lat="51.015829" lon="0.778281">
        <ele>2.953072</ele>
        <time>2022-05-22T09:32:02.000Z</time>
      </trkpt>
      <trkpt lat="51.015605" lon="0.778122">
        <ele>2.957919</ele>
        <time>2022-05-22T09:32:05.000Z</time>
      </trkpt>
      <trkpt lat="51.015231" lon="0.777688">
        <ele>2.96689</ele>
        <time>2022-05-22T09:32:10.000Z</time>
      </trkpt>
      <trkpt lat="51.015005" lon="0.777563">
        <ele>2.971297</ele>
        <time>2022-05-22T09:32:13.000Z</time>
      </trkpt>
      <trkpt lat="51.010729" lon="0.775696">
        <ele>2.686148</ele>
        <time>2022-05-22T09:33:02.000Z</time>
      </trkpt>
      <trkpt lat="51.010208" lon="0.775173">
        <ele>2.632196</ele>
        <time>2022-05-22T09:33:09.000Z</time>
      </trkpt>
      <trkpt lat="51.009877" lon="0.774957">
        <ele>2.601582</ele>
        <time>2022-05-22T09:33:13.000Z</time>
      </trkpt>
      <trkpt lat="51.008356" lon="0.774311">
        <ele>2.575808</ele>
        <time>2022-05-22T09:33:31.000Z</time>
      </trkpt>
      <trkpt lat="51.007655" lon="0.774006">
        <ele>2.614454</ele>
        <time>2022-05-22T09:33:39.000Z</time>
      </trkpt>
      <trkpt lat="51.0051" lon="0.772833">
        <ele>2.980633</ele>
        <time>2022-05-22T09:34:09.000Z</time>
      </trkpt>
      <trkpt lat="51.004885" lon="0.772697">
        <ele>3.011258</ele>
        <time>2022-05-22T09:34:12.000Z</time>
      </trkpt>
      <trkpt lat="51.004781" lon="0.772608">
        <ele>3.027368</ele>
        <time>2022-05-22T09:34:13.000Z</time>
      </trkpt>
      <trkpt lat="51.000931" lon="0.769118">
        <ele>2.99006</ele>
        <time>2022-05-22T09:35:02.000Z</time>
      </trkpt>
      <trkpt lat="51.000074" lon="0.768726">
        <ele>2.820635</ele>
        <time>2022-05-22T09:35:12.000Z</time>
      </trkpt>
      <trkpt lat="50.99868" lon="0.767427">
        <ele>2.470472</ele>
        <time>2022-05-22T09:35:30.000Z</time>
      </trkpt>
      <trkpt lat="50.99809" lon="0.766897">
        <ele>2.373515</ele>
        <time>2022-05-22T09:35:38.000Z</time>
      </trkpt>
      <trkpt lat="50.997193" lon="0.76604">
        <ele>2.636156</ele>
        <time>2022-05-22T09:35:50.000Z</time>
      </trkpt>
      <trkpt lat="50.996275" lon="0.765217">
        <ele>2.932328</ele>
        <time>2022-05-22T09:36:02.000Z</time>
      </trkpt>
      <trkpt lat="50.995678" lon="0.764994">
        <ele>3.129146</ele>
        <time>2022-05-22T09:36:09.000Z</time>
      </trkpt>
      <trkpt lat="50.995491" lon="0.764857">
        <ele>3.193117</ele>
        <time>2022-05-22T09:36:11.000Z</time>
      </trkpt>
      <trkpt lat="50.994347" lon="0.763782">
        <ele>3.347645</ele>
        <time>2022-05-22T09:36:26.000Z</time>
      </trkpt>
      <trkpt lat="50.992874" lon="0.762453">
        <ele>3.131285</ele>
        <time>2022-05-22T09:36:45.000Z</time>
      </trkpt>
      <trkpt lat="50.991641" lon="0.761289">
        <ele>2.799622</ele>
        <time>2022-05-22T09:37:01.000Z</time>
      </trkpt>
      <trkpt lat="50.99125" lon="0.761047">
        <ele>2.773935</ele>
        <time>2022-05-22T09:37:06.000Z</time>
      </trkpt>
      <trkpt lat="50.990842" lon="0.76088">
        <ele>2.747663</ele>
        <time>2022-05-22T09:37:11.000Z</time>
      </trkpt>
      <trkpt lat="50.990541" lon="0.760759">
        <ele>2.728117</ele>
        <time>2022-05-22T09:37:14.000Z</time>
      </trkpt>
      <trkpt lat="50.987764" lon="0.758169">
        <ele>2.976384</ele>
        <time>2022-05-22T09:37:50.000Z</time>
      </trkpt>
      <trkpt lat="50.987568" lon="0.75796">
        <ele>2.942348</ele>
        <time>2022-05-22T09:37:53.000Z</time>
      </trkpt>
      <trkpt lat="50.987526" lon="0.757901">
        <ele>2.932847</ele>
        <time>2022-05-22T09:37:54.000Z</time>
      </trkpt>
      <trkpt lat="50.987294" lon="0.757715">
        <ele>2.896495</ele>
        <time>2022-05-22T09:37:57.000Z</time>
      </trkpt>
      <trkpt lat="50.987032" lon="0.757516">
        <ele>2.788045</ele>
        <time>2022-05-22T09:38:00.000Z</time>
      </trkpt>
      <trkpt lat="50.986864" lon="0.757403">
        <ele>2.645732</ele>
        <time>2022-05-22T09:38:02.000Z</time>
      </trkpt>
      <trkpt lat="50.98679" lon="0.757378">
        <ele>2.596162</ele>
        <time>2022-05-22T09:38:03.000Z</time>
      </trkpt>
      <trkpt lat="50.986381" lon="0.757168">
        <ele>2.276824</ele>
        <time>2022-05-22T09:38:08.000Z</time>
      </trkpt>
      <trkpt lat="50.986302" lon="0.757098">
        <ele>2.212449</ele>
        <time>2022-05-22T09:38:09.000Z</time>
      </trkpt>
      <trkpt lat="50.986209" lon="0.757088">
        <ele>2.152816</ele>
        <time>2022-05-22T09:38:10.000Z</time>
      </trkpt>
      <trkpt lat="50.986166" lon="0.757087">
        <ele>2.118472</ele>
        <time>2022-05-22T09:38:10.000Z</time>
      </trkpt>
      <trkpt lat="50.986087" lon="0.757081">
        <ele>2.06147</ele>
        <time>2022-05-22T09:38:11.000Z</time>
      </trkpt>
      <trkpt lat="50.985192" lon="0.757172">
        <ele>1.516001</ele>
        <time>2022-05-22T09:38:21.000Z</time>
      </trkpt>
      <trkpt lat="50.983813" lon="0.757076">
        <ele>1.235443</ele>
        <time>2022-05-22T09:38:36.000Z</time>
      </trkpt>
      <trkpt lat="50.981775" lon="0.756785">
        <ele>1.135191</ele>
        <time>2022-05-22T09:38:59.000Z</time>
      </trkpt>
      <trkpt lat="50.980735" lon="0.756549">
        <ele>1.250358</ele>
        <time>2022-05-22T09:39:11.000Z</time>
      </trkpt>
      <trkpt lat="50.980435" lon="0.75645">
        <ele>1.284612</ele>
        <time>2022-05-22T09:39:14.000Z</time>
      </trkpt>
      <trkpt lat="50.980391" lon="0.756433">
        <ele>1.290222</ele>
        <time>2022-05-22T09:39:15.000Z</time>
      </trkpt>
      <trkpt lat="50.980215" lon="0.756359">
        <ele>1.308778</ele>
        <time>2022-05-22T09:39:17.000Z</time>
      </trkpt>
      <trkpt lat="50.973109" lon="0.752406">
        <ele>2.733959</ele>
        <time>2022-05-22T09:40:41.000Z</time>
      </trkpt>
      <trkpt lat="50.973079" lon="0.7524">
        <ele>2.733327</ele>
        <time>2022-05-22T09:40:41.000Z</time>
      </trkpt>
      <trkpt lat="50.972212" lon="0.7519">
        <ele>2.709134</ele>
        <time>2022-05-22T09:40:51.000Z</time>
      </trkpt>
      <trkpt lat="50.971503" lon="0.751496">
        <ele>2.696294</ele>
        <time>2022-05-22T09:40:59.000Z</time>
      </trkpt>
      <trkpt lat="50.971332" lon="0.751396">
        <ele>2.71037</ele>
        <time>2022-05-22T09:41:01.000Z</time>
      </trkpt>
      <trkpt lat="50.971142" lon="0.75128">
        <ele>2.725746</ele>
        <time>2022-05-22T09:41:03.000Z</time>
      </trkpt>
      <trkpt lat="50.970546" lon="0.750677">
        <ele>2.780814</ele>
        <time>2022-05-22T09:41:11.000Z</time>
      </trkpt>
      <trkpt lat="50.969969" lon="0.750025">
        <ele>2.843411</ele>
        <time>2022-05-22T09:41:19.000Z</time>
      </trkpt>
      <trkpt lat="50.969927" lon="0.749978">
        <ele>2.85549</ele>
        <time>2022-05-22T09:41:20.000Z</time>
      </trkpt>
      <trkpt lat="50.969418" lon="0.749382">
        <ele>2.98048</ele>
        <time>2022-05-22T09:41:27.000Z</time>
      </trkpt>
      <trkpt lat="50.969229" lon="0.749165">
        <ele>3.026888</ele>
        <time>2022-05-22T09:41:30.000Z</time>
      </trkpt>
      <trkpt lat="50.968785" lon="0.748641">
        <ele>3.13619</ele>
        <time>2022-05-22T09:41:36.000Z</time>
      </trkpt>
      <trkpt lat="50.968585" lon="0.748291">
        <ele>3.187068</ele>
        <time>2022-05-22T09:41:39.000Z</time>
      </trkpt>
      <trkpt lat="50.968493" lon="0.748141">
        <ele>3.18006</ele>
        <time>2022-05-22T09:41:40.000Z</time>
      </trkpt>
      <trkpt lat="50.968015" lon="0.7474">
        <ele>3.145523</ele>
        <time>2022-05-22T09:41:47.000Z</time>
      </trkpt>
      <trkpt lat="50.967219" lon="0.746334">
        <ele>3.12034</ele>
        <time>2022-05-22T09:41:59.000Z</time>
      </trkpt>
      <trkpt lat="50.965144" lon="0.744379">
        <ele>3.948913</ele>
        <time>2022-05-22T09:42:26.000Z</time>
      </trkpt>
      <trkpt lat="50.964646" lon="0.743855">
        <ele>4.21914</ele>
        <time>2022-05-22T09:42:33.000Z</time>
      </trkpt>
      <trkpt lat="50.964291" lon="0.743453">
        <ele>4.409098</ele>
        <time>2022-05-22T09:42:38.000Z</time>
      </trkpt>
      <trkpt lat="50.964008" lon="0.74311">
        <ele>4.546252</ele>
        <time>2022-05-22T09:42:42.000Z</time>
      </trkpt>
      <trkpt lat="50.963669" lon="0.742571">
        <ele>4.725569</ele>
        <time>2022-05-22T09:42:47.000Z</time>
      </trkpt>
      <trkpt lat="50.963627" lon="0.742522">
        <ele>4.744049</ele>
        <time>2022-05-22T09:42:48.000Z</time>
      </trkpt>
      <trkpt lat="50.963499" lon="0.74233">
        <ele>4.811682</ele>
        <time>2022-05-22T09:42:50.000Z</time>
      </trkpt>
      <trkpt lat="50.963416" lon="0.742262">
        <ele>4.843019</ele>
        <time>2022-05-22T09:42:51.000Z</time>
      </trkpt>
      <trkpt lat="50.961945" lon="0.74084">
        <ele>5.349974</ele>
        <time>2022-05-22T09:43:10.000Z</time>
      </trkpt>
      <trkpt lat="50.961331" lon="0.740327">
        <ele>5.516136</ele>
        <time>2022-05-22T09:43:18.000Z</time>
      </trkpt>
      <trkpt lat="50.961108" lon="0.740188">
        <ele>5.529075</ele>
        <time>2022-05-22T09:43:21.000Z</time>
      </trkpt>
      <trkpt lat="50.960867" lon="0.740027">
        <ele>5.508505</ele>
        <time>2022-05-22T09:43:24.000Z</time>
      </trkpt>
      <trkpt lat="50.960759" lon="0.739996">
        <ele>5.501132</ele>
        <time>2022-05-22T09:43:25.000Z</time>
      </trkpt>
      <trkpt lat="50.96072" lon="0.739987">
        <ele>5.498187</ele>
        <time>2022-05-22T09:43:25.000Z</time>
      </trkpt>
      <trkpt lat="50.960641" lon="0.739964">
        <ele>5.492101</ele>
        <time>2022-05-22T09:43:26.000Z</time>
      </trkpt>
      <trkpt lat="50.959563" lon="0.740071">
        <ele>5.411182</ele>
        <time>2022-05-22T09:43:38.000Z</time>
      </trkpt>
      <trkpt lat="50.959184" lon="0.739992">
        <ele>5.380213</ele>
        <time>2022-05-22T09:43:42.000Z</time>
      </trkpt>
      <trkpt lat="50.958761" lon="0.739746">
        <ele>5.343989</ele>
        <time>2022-05-22T09:43:47.000Z</time>
      </trkpt>
      <trkpt lat="50.958735" lon="0.739713">
        <ele>5.341126</ele>
        <time>2022-05-22T09:43:47.000Z</time>
      </trkpt>
      <trkpt lat="50.958615" lon="0.739613">
        <ele>5.329872</ele>
        <time>2022-05-22T09:43:49.000Z</time>
      </trkpt>
      <trkpt lat="50.958412" lon="0.739355">
        <ele>5.308586</ele>
        <time>2022-05-22T09:43:52.000Z</time>
      </trkpt>
      <trkpt lat="50.95798" lon="0.738831">
        <ele>5.264426</ele>
        <time>2022-05-22T09:43:58.000Z</time>
      </trkpt>
      <trkpt lat="50.957914" lon="0.738717">
        <ele>5.269901</ele>
        <time>2022-05-22T09:43:59.000Z</time>
      </trkpt>
      <trkpt lat="50.957459" lon="0.73776">
        <ele>5.636313</ele>
        <time>2022-05-22T09:44:07.000Z</time>
      </trkpt>
      <trkpt lat="50.95732" lon="0.737515">
        <ele>5.740412</ele>
        <time>2022-05-22T09:44:09.000Z</time>
      </trkpt>
      <trkpt lat="50.957186" lon="0.737321">
        <ele>5.827186</ele>
        <time>2022-05-22T09:44:11.000Z</time>
      </trkpt>
      <trkpt lat="50.957135" lon="0.737264">
        <ele>5.860168</ele>
        <time>2022-05-22T09:44:12.000Z</time>
      </trkpt>
      <trkpt lat="50.956844" lon="0.736905">
        <ele>6.042487</ele>
        <time>2022-05-22T09:44:16.000Z</time>
      </trkpt>
      <trkpt lat="50.956599" lon="0.736607">
        <ele>6.137195</ele>
        <time>2022-05-22T09:44:19.000Z</time>
      </trkpt>
      <trkpt lat="50.956569" lon="0.736564">
        <ele>6.136432</ele>
        <time>2022-05-22T09:44:19.000Z</time>
      </trkpt>
      <trkpt lat="50.956534" lon="0.736532">
        <ele>6.135976</ele>
        <time>2022-05-22T09:44:19.000Z</time>
      </trkpt>
      <trkpt lat="50.956382" lon="0.736391">
        <ele>6.133495</ele>
        <time>2022-05-22T09:44:21.000Z</time>
      </trkpt>
      <trkpt lat="50.956205" lon="0.736233">
        <ele>6.130777</ele>
        <time>2022-05-22T09:44:23.000Z</time>
      </trkpt>
      <trkpt lat="50.956048" lon="0.73612">
        <ele>6.128454</ele>
        <time>2022-05-22T09:44:25.000Z</time>
      </trkpt>
      <trkpt lat="50.955823" lon="0.736001">
        <ele>6.125146</ele>
        <time>2022-05-22T09:44:28.000Z</time>
      </trkpt>
      <trkpt lat="50.955416" lon="0.735833">
        <ele>6.119569</ele>
        <time>2022-05-22T09:44:33.000Z</time>
      </trkpt>
      <trkpt lat="50.955262" lon="0.735768">
        <ele>6.117344</ele>
        <time>2022-05-22T09:44:35.000Z</time>
      </trkpt>
      <trkpt lat="50.955141" lon="0.735701">
        <ele>6.115515</ele>
        <time>2022-05-22T09:44:36.000Z</time>
      </trkpt>
      <trkpt lat="50.9551" lon="0.735604">
        <ele>6.114609</ele>
        <time>2022-05-22T09:44:37.000Z</time>
      </trkpt>
      <trkpt lat="50.954919" lon="0.735598">
        <ele>6.009128</ele>
        <time>2022-05-22T09:44:39.000Z</time>
      </trkpt>
      <trkpt lat="50.954753" lon="0.73556">
        <ele>5.877888</ele>
        <time>2022-05-22T09:44:41.000Z</time>
      </trkpt>
      <trkpt lat="50.954205" lon="0.735504">
        <ele>5.444747</ele>
        <time>2022-05-22T09:44:47.000Z</time>
      </trkpt>
      <trkpt lat="50.954049" lon="0.735506">
        <ele>5.33431</ele>
        <time>2022-05-22T09:44:49.000Z</time>
      </trkpt>
      <trkpt lat="50.953934" lon="0.735524">
        <ele>5.246589</ele>
        <time>2022-05-22T09:44:50.000Z</time>
      </trkpt>
      <trkpt lat="50.953905" lon="0.735541">
        <ele>5.224053</ele>
        <time>2022-05-22T09:44:50.000Z</time>
      </trkpt>
      <trkpt lat="50.953847" lon="0.735647">
        <ele>5.149612</ele>
        <time>2022-05-22T09:44:51.000Z</time>
      </trkpt>
      <trkpt lat="50.953551" lon="0.735887">
        <ele>4.891866</ele>
        <time>2022-05-22T09:44:55.000Z</time>
      </trkpt>
      <trkpt lat="50.953503" lon="0.735923">
        <ele>4.85561</ele>
        <time>2022-05-22T09:44:56.000Z</time>
      </trkpt>
      <trkpt lat="50.953455" lon="0.735978">
        <ele>4.804108</ele>
        <time>2022-05-22T09:44:57.000Z</time>
      </trkpt>
      <trkpt lat="50.953423" lon="0.736017">
        <ele>4.780827</ele>
        <time>2022-05-22T09:44:57.000Z</time>
      </trkpt>
      <trkpt lat="50.953357" lon="0.736107">
        <ele>4.704007</ele>
        <time>2022-05-22T09:44:58.000Z</time>
      </trkpt>
      <trkpt lat="50.953176" lon="0.736238">
        <ele>4.504308</ele>
        <time>2022-05-22T09:45:00.000Z</time>
      </trkpt>
      <trkpt lat="50.953017" lon="0.736228">
        <ele>4.340461</ele>
        <time>2022-05-22T09:45:02.000Z</time>
      </trkpt>
      <trkpt lat="50.952977" lon="0.736386">
        <ele>4.232663</ele>
        <time>2022-05-22T09:45:03.000Z</time>
      </trkpt>
      <trkpt lat="50.952977" lon="0.736491">
        <ele>4.162342</ele>
        <time>2022-05-22T09:45:04.000Z</time>
      </trkpt>
      <trkpt lat="50.952956" lon="0.737073">
        <ele>3.79706</ele>
        <time>2022-05-22T09:45:08.000Z</time>
      </trkpt>
      <trkpt lat="50.952974" lon="0.737964">
        <ele>3.21544</ele>
        <time>2022-05-22T09:45:14.000Z</time>
      </trkpt>
      <trkpt lat="50.952995" lon="0.738246">
        <ele>3.043937</ele>
        <time>2022-05-22T09:45:16.000Z</time>
      </trkpt>
      <trkpt lat="50.953045" lon="0.738678">
        <ele>2.883607</ele>
        <time>2022-05-22T09:45:19.000Z</time>
      </trkpt>
      <trkpt lat="50.953094" lon="0.738874">
        <ele>2.872647</ele>
        <time>2022-05-22T09:45:20.000Z</time>
      </trkpt>
      <trkpt lat="50.9532" lon="0.739566">
        <ele>2.834288</ele>
        <time>2022-05-22T09:45:25.000Z</time>
      </trkpt>
      <trkpt lat="50.953231" lon="0.739647">
        <ele>2.82916</ele>
        <time>2022-05-22T09:45:26.000Z</time>
      </trkpt>
      <trkpt lat="50.953322" lon="0.740072">
        <ele>2.805198</ele>
        <time>2022-05-22T09:45:29.000Z</time>
      </trkpt>
      <trkpt lat="50.953427" lon="0.740428">
        <ele>2.784605</ele>
        <time>2022-05-22T09:45:32.000Z</time>
      </trkpt>
      <trkpt lat="50.953636" lon="0.741146">
        <ele>2.743148</ele>
        <time>2022-05-22T09:45:38.000Z</time>
      </trkpt>
      <trkpt lat="50.95387" lon="0.741878">
        <ele>2.855513</ele>
        <time>2022-05-22T09:45:44.000Z</time>
      </trkpt>
      <trkpt lat="50.954284" lon="0.74326">
        <ele>3.068479</ele>
        <time>2022-05-22T09:45:55.000Z</time>
      </trkpt>
      <trkpt lat="50.954414" lon="0.743712">
        <ele>3.134949</ele>
        <time>2022-05-22T09:45:58.000Z</time>
      </trkpt>
      <trkpt lat="50.954471" lon="0.743861">
        <ele>3.106914</ele>
        <time>2022-05-22T09:45:59.000Z</time>
      </trkpt>
      <trkpt lat="50.954486" lon="0.743999">
        <ele>3.082258</ele>
        <time>2022-05-22T09:46:00.000Z</time>
      </trkpt>
      <trkpt lat="50.956978" lon="0.752156">
        <ele>1.57835</ele>
        <time>2022-05-22T09:47:03.000Z</time>
      </trkpt>
      <trkpt lat="50.957307" lon="0.753002">
        <ele>1.586151</ele>
        <time>2022-05-22T09:47:10.000Z</time>
      </trkpt>
      <trkpt lat="50.957851" lon="0.75404">
        <ele>1.651824</ele>
        <time>2022-05-22T09:47:19.000Z</time>
      </trkpt>
      <trkpt lat="50.957992" lon="0.754274">
        <ele>1.714404</ele>
        <time>2022-05-22T09:47:21.000Z</time>
      </trkpt>
      <trkpt lat="50.958258" lon="0.754735">
        <ele>1.837467</ele>
        <time>2022-05-22T09:47:25.000Z</time>
      </trkpt>
      <trkpt lat="50.958394" lon="0.754907">
        <ele>1.888279</ele>
        <time>2022-05-22T09:47:27.000Z</time>
      </trkpt>
      <trkpt lat="50.958558" lon="0.755079">
        <ele>1.951847</ele>
        <time>2022-05-22T09:47:29.000Z</time>
      </trkpt>
      <trkpt lat="50.958544" lon="0.755213">
        <ele>1.977776</ele>
        <time>2022-05-22T09:47:30.000Z</time>
      </trkpt>
      <trkpt lat="50.958433" lon="0.755461">
        <ele>2.036483</ele>
        <time>2022-05-22T09:47:32.000Z</time>
      </trkpt>
      <trkpt lat="50.9577" lon="0.756038">
        <ele>2.186672</ele>
        <time>2022-05-22T09:47:41.000Z</time>
      </trkpt>
      <trkpt lat="50.957338" lon="0.756412">
        <ele>2.226873</ele>
        <time>2022-05-22T09:47:46.000Z</time>
      </trkpt>
      <trkpt lat="50.956969" lon="0.757094">
        <ele>2.278074</ele>
        <time>2022-05-22T09:47:52.000Z</time>
      </trkpt>
      <trkpt lat="50.956788" lon="0.757458">
        <ele>2.305133</ele>
        <time>2022-05-22T09:47:55.000Z</time>
      </trkpt>
      <trkpt lat="50.956662" lon="0.757721">
        <ele>2.283324</ele>
        <time>2022-05-22T09:47:57.000Z</time>
      </trkpt>
      <trkpt lat="50.956572" lon="0.757883">
        <ele>2.261481</ele>
        <time>2022-05-22T09:47:59.000Z</time>
      </trkpt>
      <trkpt lat="50.956476" lon="0.757948">
        <ele>2.243689</ele>
        <time>2022-05-22T09:48:00.000Z</time>
      </trkpt>
      <trkpt lat="50.956275" lon="0.758">
        <ele>2.209299</ele>
        <time>2022-05-22T09:48:02.000Z</time>
      </trkpt>
      <trkpt lat="50.954208" lon="0.75789">
        <ele>1.826985</ele>
        <time>2022-05-22T09:48:25.000Z</time>
      </trkpt>
      <trkpt lat="50.954055" lon="0.75767">
        <ele>1.784232</ele>
        <time>2022-05-22T09:48:27.000Z</time>
      </trkpt>
      <trkpt lat="50.954058" lon="0.757566">
        <ele>1.772117</ele>
        <time>2022-05-22T09:48:28.000Z</time>
      </trkpt>
      <trkpt lat="50.954" lon="0.756607">
        <ele>1.643008</ele>
        <time>2022-05-22T09:48:35.000Z</time>
      </trkpt>
      <trkpt lat="50.953864" lon="0.756184">
        <ele>1.615392</ele>
        <time>2022-05-22T09:48:38.000Z</time>
      </trkpt>
      <trkpt lat="50.95361" lon="0.75577">
        <ele>1.588653</ele>
        <time>2022-05-22T09:48:42.000Z</time>
      </trkpt>
      <trkpt lat="50.950055" lon="0.754238">
        <ele>1.505061</ele>
        <time>2022-05-22T09:49:23.000Z</time>
      </trkpt>
      <trkpt lat="50.949354" lon="0.753951">
        <ele>1.649915</ele>
        <time>2022-05-22T09:49:31.000Z</time>
      </trkpt>
      <trkpt lat="50.949267" lon="0.753904">
        <ele>1.671426</ele>
        <time>2022-05-22T09:49:32.000Z</time>
      </trkpt>
      <trkpt lat="50.949132" lon="0.75386">
        <ele>1.697832</ele>
        <time>2022-05-22T09:49:34.000Z</time>
      </trkpt>
      <trkpt lat="50.948991" lon="0.753887">
        <ele>1.727841</ele>
        <time>2022-05-22T09:49:36.000Z</time>
      </trkpt>
      <trkpt lat="50.948786" lon="0.753989">
        <ele>1.789985</ele>
        <time>2022-05-22T09:49:38.000Z</time>
      </trkpt>
      <trkpt lat="50.948742" lon="0.754034">
        <ele>1.811566</ele>
        <time>2022-05-22T09:49:39.000Z</time>
      </trkpt>
      <trkpt lat="50.94865" lon="0.754142">
        <ele>1.842711</ele>
        <time>2022-05-22T09:49:40.000Z</time>
      </trkpt>
      <trkpt lat="50.948603" lon="0.754247">
        <ele>1.870908</ele>
        <time>2022-05-22T09:49:41.000Z</time>
      </trkpt>
      <trkpt lat="50.948553" lon="0.754335">
        <ele>1.891551</ele>
        <time>2022-05-22T09:49:42.000Z</time>
      </trkpt>
      <trkpt lat="50.948478" lon="0.754502">
        <ele>1.931666</ele>
        <time>2022-05-22T09:49:43.000Z</time>
      </trkpt>
      <trkpt lat="50.948348" lon="0.755029">
        <ele>2.042358</ele>
        <time>2022-05-22T09:49:47.000Z</time>
      </trkpt>
      <trkpt lat="50.948152" lon="0.755541">
        <ele>2.161019</ele>
        <time>2022-05-22T09:49:51.000Z</time>
      </trkpt>
      <trkpt lat="50.946841" lon="0.757611">
        <ele>1.972175</ele>
        <time>2022-05-22T09:50:12.000Z</time>
      </trkpt>
      <trkpt lat="50.946676" lon="0.757989">
        <ele>1.911205</ele>
        <time>2022-05-22T09:50:15.000Z</time>
      </trkpt>
      <trkpt lat="50.946598" lon="0.758876">
        <ele>1.799975</ele>
        <time>2022-05-22T09:50:21.000Z</time>
      </trkpt>
      <trkpt lat="50.946508" lon="0.759116">
        <ele>1.768597</ele>
        <time>2022-05-22T09:50:23.000Z</time>
      </trkpt>
      <trkpt lat="50.945671" lon="0.760573">
        <ele>1.585068</ele>
        <time>2022-05-22T09:50:37.000Z</time>
      </trkpt>
      <trkpt lat="50.945215" lon="0.761156">
        <ele>1.747268</ele>
        <time>2022-05-22T09:50:44.000Z</time>
      </trkpt>
      <trkpt lat="50.9448" lon="0.761904">
        <ele>1.916825</ele>
        <time>2022-05-22T09:50:51.000Z</time>
      </trkpt>
      <trkpt lat="50.9444" lon="0.762949">
        <ele>2.194762</ele>
        <time>2022-05-22T09:51:00.000Z</time>
      </trkpt>
      <trkpt lat="50.944339" lon="0.763038">
        <ele>2.231798</ele>
        <time>2022-05-22T09:51:01.000Z</time>
      </trkpt>
      <trkpt lat="50.944284" lon="0.763248">
        <ele>2.306762</ele>
        <time>2022-05-22T09:51:03.000Z</time>
      </trkpt>
      <trkpt lat="50.944189" lon="0.763888">
        <ele>2.506587</ele>
        <time>2022-05-22T09:51:08.000Z</time>
      </trkpt>
      <trkpt lat="50.944218" lon="0.764688">
        <ele>2.758172</ele>
        <time>2022-05-22T09:51:14.000Z</time>
      </trkpt>
      <trkpt lat="50.944131" lon="0.766194">
        <ele>3.154694</ele>
        <time>2022-05-22T09:51:25.000Z</time>
      </trkpt>
      <trkpt lat="50.944055" lon="0.766639">
        <ele>3.257956</ele>
        <time>2022-05-22T09:51:28.000Z</time>
      </trkpt>
      <trkpt lat="50.943946" lon="0.766978">
        <ele>3.349424</ele>
        <time>2022-05-22T09:51:31.000Z</time>
      </trkpt>
      <trkpt lat="50.943693" lon="0.767261">
        <ele>3.458922</ele>
        <time>2022-05-22T09:51:34.000Z</time>
      </trkpt>
      <trkpt lat="50.942744" lon="0.767949">
        <ele>4.015514</ele>
        <time>2022-05-22T09:51:46.000Z</time>
      </trkpt>
      <trkpt lat="50.941939" lon="0.768723">
        <ele>4.595883</ele>
        <time>2022-05-22T09:51:56.000Z</time>
      </trkpt>
      <trkpt lat="50.941111" lon="0.769771">
        <ele>4.984235</ele>
        <time>2022-05-22T09:52:08.000Z</time>
      </trkpt>
      <trkpt lat="50.94076" lon="0.770276">
        <ele>5.133557</ele>
        <time>2022-05-22T09:52:13.000Z</time>
      </trkpt>
      <trkpt lat="50.940533" lon="0.770683">
        <ele>5.244637</ele>
        <time>2022-05-22T09:52:17.000Z</time>
      </trkpt>
      <trkpt lat="50.9405" lon="0.770763">
        <ele>5.263164</ele>
        <time>2022-05-22T09:52:18.000Z</time>
      </trkpt>
      <trkpt lat="50.940413" lon="0.770977">
        <ele>5.23085</ele>
        <time>2022-05-22T09:52:20.000Z</time>
      </trkpt>
      <trkpt lat="50.940397" lon="0.77103">
        <ele>5.216755</ele>
        <time>2022-05-22T09:52:20.000Z</time>
      </trkpt>
      <trkpt lat="50.939991" lon="0.772361">
        <ele>4.881684</ele>
        <time>2022-05-22T09:52:30.000Z</time>
      </trkpt>
      <trkpt lat="50.939669" lon="0.773702">
        <ele>4.613835</ele>
        <time>2022-05-22T09:52:40.000Z</time>
      </trkpt>
      <trkpt lat="50.939301" lon="0.774547">
        <ele>4.57544</ele>
        <time>2022-05-22T09:52:47.000Z</time>
      </trkpt>
      <trkpt lat="50.939157" lon="0.774798">
        <ele>4.562395</ele>
        <time>2022-05-22T09:52:49.000Z</time>
      </trkpt>
      <trkpt lat="50.939025" lon="0.775035">
        <ele>4.550578</ele>
        <time>2022-05-22T09:52:51.000Z</time>
      </trkpt>
      <trkpt lat="50.938537" lon="0.776305">
        <ele>4.562716</ele>
        <time>2022-05-22T09:53:01.000Z</time>
      </trkpt>
      <trkpt lat="50.938249" lon="0.77727">
        <ele>4.63679</ele>
        <time>2022-05-22T09:53:08.000Z</time>
      </trkpt>
      <trkpt lat="50.936925" lon="0.783138">
        <ele>4.821384</ele>
        <time>2022-05-22T09:53:52.000Z</time>
      </trkpt>
      <trkpt lat="50.936875" lon="0.783755">
        <ele>4.837394</ele>
        <time>2022-05-22T09:53:56.000Z</time>
      </trkpt>
      <trkpt lat="50.93687" lon="0.7838">
        <ele>4.83972</ele>
        <time>2022-05-22T09:53:56.000Z</time>
      </trkpt>
      <trkpt lat="50.936917" lon="0.784123">
        <ele>4.856982</ele>
        <time>2022-05-22T09:53:58.000Z</time>
      </trkpt>
      <trkpt lat="50.936941" lon="0.784364">
        <ele>4.870158</ele>
        <time>2022-05-22T09:54:00.000Z</time>
      </trkpt>
      <trkpt lat="50.936977" lon="0.784655">
        <ele>4.884953</ele>
        <time>2022-05-22T09:54:02.000Z</time>
      </trkpt>
      <trkpt lat="50.937013" lon="0.785044">
        <ele>4.906057</ele>
        <time>2022-05-22T09:54:05.000Z</time>
      </trkpt>
      <trkpt lat="50.937023" lon="0.785315">
        <ele>4.920282</ele>
        <time>2022-05-22T09:54:07.000Z</time>
      </trkpt>
      <trkpt lat="50.937028" lon="0.78555">
        <ele>4.932599</ele>
        <time>2022-05-22T09:54:09.000Z</time>
      </trkpt>
      <trkpt lat="50.936991" lon="0.785891">
        <ele>4.951231</ele>
        <time>2022-05-22T09:54:11.000Z</time>
      </trkpt>
      <trkpt lat="50.936954" lon="0.786099">
        <ele>4.962515</ele>
        <time>2022-05-22T09:54:13.000Z</time>
      </trkpt>
      <trkpt lat="50.936773" lon="0.786581">
        <ele>4.9917</ele>
        <time>2022-05-22T09:54:17.000Z</time>
      </trkpt>
      <trkpt lat="50.936567" lon="0.787105">
        <ele>5.019037</ele>
        <time>2022-05-22T09:54:21.000Z</time>
      </trkpt>
      <trkpt lat="50.936341" lon="0.787637">
        <ele>5.047033</ele>
        <time>2022-05-22T09:54:25.000Z</time>
      </trkpt>
      <trkpt lat="50.936315" lon="0.787746">
        <ele>5.052482</ele>
        <time>2022-05-22T09:54:26.000Z</time>
      </trkpt>
      <trkpt lat="50.936278" lon="0.787924">
        <ele>5.060641</ele>
        <time>2022-05-22T09:54:27.000Z</time>
      </trkpt>
      <trkpt lat="50.936172" lon="0.788307">
        <ele>5.078744</ele>
        <time>2022-05-22T09:54:30.000Z</time>
      </trkpt>
      <trkpt lat="50.936135" lon="0.788485">
        <ele>5.087571</ele>
        <time>2022-05-22T09:54:31.000Z</time>
      </trkpt>
      <trkpt lat="50.936091" lon="0.788881">
        <ele>5.104891</ele>
        <time>2022-05-22T09:54:34.000Z</time>
      </trkpt>
      <trkpt lat="50.936091" lon="0.789582">
        <ele>5.010515</ele>
        <time>2022-05-22T09:54:39.000Z</time>
      </trkpt>
      <trkpt lat="50.936116" lon="0.78994">
        <ele>4.932492</ele>
        <time>2022-05-22T09:54:42.000Z</time>
      </trkpt>
      <trkpt lat="50.936236" lon="0.790545">
        <ele>4.795597</ele>
        <time>2022-05-22T09:54:46.000Z</time>
      </trkpt>
      <trkpt lat="50.936591" lon="0.791459">
        <ele>4.565103</ele>
        <time>2022-05-22T09:54:54.000Z</time>
      </trkpt>
      <trkpt lat="50.936671" lon="0.791647">
        <ele>4.517287</ele>
        <time>2022-05-22T09:54:56.000Z</time>
      </trkpt>
      <trkpt lat="50.93671" lon="0.791723">
        <ele>4.49497</ele>
        <time>2022-05-22T09:54:57.000Z</time>
      </trkpt>
      <trkpt lat="50.936718" lon="0.791858">
        <ele>4.461055</ele>
        <time>2022-05-22T09:54:58.000Z</time>
      </trkpt>
      <trkpt lat="50.936774" lon="0.792323">
        <ele>4.337262</ele>
        <time>2022-05-22T09:55:01.000Z</time>
      </trkpt>
      <trkpt lat="50.936794" lon="0.792889">
        <ele>4.190265</ele>
        <time>2022-05-22T09:55:05.000Z</time>
      </trkpt>
      <trkpt lat="50.936773" lon="0.79346">
        <ele>4.042499</ele>
        <time>2022-05-22T09:55:09.000Z</time>
      </trkpt>
      <trkpt lat="50.936602" lon="0.7942">
        <ele>3.836938</ele>
        <time>2022-05-22T09:55:15.000Z</time>
      </trkpt>
      <trkpt lat="50.936525" lon="0.794392">
        <ele>3.779214</ele>
        <time>2022-05-22T09:55:17.000Z</time>
      </trkpt>
      <trkpt lat="50.936283" lon="0.794996">
        <ele>3.729445</ele>
        <time>2022-05-22T09:55:22.000Z</time>
      </trkpt>
      <trkpt lat="50.935625" lon="0.796604">
        <ele>3.646155</ele>
        <time>2022-05-22T09:55:35.000Z</time>
      </trkpt>
      <trkpt lat="50.935586" lon="0.796741">
        <ele>3.639887</ele>
        <time>2022-05-22T09:55:36.000Z</time>
      </trkpt>
      <trkpt lat="50.935522" lon="0.796921">
        <ele>3.636762</ele>
        <time>2022-05-22T09:55:37.000Z</time>
      </trkpt>
      <trkpt lat="50.935223" lon="0.797608">
        <ele>3.688507</ele>
        <time>2022-05-22T09:55:43.000Z</time>
      </trkpt>
      <trkpt lat="50.934977" lon="0.79824">
        <ele>3.734493</ele>
        <time>2022-05-22T09:55:48.000Z</time>
      </trkpt>
      <trkpt lat="50.93485" lon="0.798588">
        <ele>3.759135</ele>
        <time>2022-05-22T09:55:51.000Z</time>
      </trkpt>
      <trkpt lat="50.934811" lon="0.798663">
        <ele>3.764839</ele>
        <time>2022-05-22T09:55:52.000Z</time>
      </trkpt>
      <trkpt lat="50.934678" lon="0.799008">
        <ele>3.789325</ele>
        <time>2022-05-22T09:55:55.000Z</time>
      </trkpt>
      <trkpt lat="50.9345" lon="0.799448">
        <ele>3.815736</ele>
        <time>2022-05-22T09:55:59.000Z</time>
      </trkpt>
      <trkpt lat="50.934219" lon="0.800173">
        <ele>3.841842</ele>
        <time>2022-05-22T09:56:05.000Z</time>
      </trkpt>
      <trkpt lat="50.933844" lon="0.801074">
        <ele>3.874917</ele>
        <time>2022-05-22T09:56:13.000Z</time>
      </trkpt>
      <trkpt lat="50.933797" lon="0.801211">
        <ele>3.879592</ele>
        <time>2022-05-22T09:56:14.000Z</time>
      </trkpt>
      <trkpt lat="50.933664" lon="0.801479">
        <ele>3.88976</ele>
        <time>2022-05-22T09:56:16.000Z</time>
      </trkpt>
      <trkpt lat="50.933381" lon="0.802089">
        <ele>3.88548</ele>
        <time>2022-05-22T09:56:21.000Z</time>
      </trkpt>
      <trkpt lat="50.933163" lon="0.802513">
        <ele>3.873976</ele>
        <time>2022-05-22T09:56:25.000Z</time>
      </trkpt>
      <trkpt lat="50.933062" lon="0.802699">
        <ele>3.869114</ele>
        <time>2022-05-22T09:56:27.000Z</time>
      </trkpt>
      <trkpt lat="50.93258" lon="0.803636">
        <ele>3.843699</ele>
        <time>2022-05-22T09:56:35.000Z</time>
      </trkpt>
      <trkpt lat="50.932517" lon="0.803775">
        <ele>3.839889</ele>
        <time>2022-05-22T09:56:36.000Z</time>
      </trkpt>
      <trkpt lat="50.932158" lon="0.804448">
        <ele>3.611639</ele>
        <time>2022-05-22T09:56:42.000Z</time>
      </trkpt>
      <trkpt lat="50.931969" lon="0.804826">
        <ele>3.456629</ele>
        <time>2022-05-22T09:56:45.000Z</time>
      </trkpt>
      <trkpt lat="50.931854" lon="0.805065">
        <ele>3.368844</ele>
        <time>2022-05-22T09:56:47.000Z</time>
      </trkpt>
      <trkpt lat="50.93178" lon="0.805231">
        <ele>3.298516</ele>
        <time>2022-05-22T09:56:48.000Z</time>
      </trkpt>
      <trkpt lat="50.931683" lon="0.805446">
        <ele>3.218891</ele>
        <time>2022-05-22T09:56:50.000Z</time>
      </trkpt>
      <trkpt lat="50.931592" lon="0.805616">
        <ele>3.149389</ele>
        <time>2022-05-22T09:56:52.000Z</time>
      </trkpt>
      <trkpt lat="50.931558" lon="0.805703">
        <ele>3.121428</ele>
        <time>2022-05-22T09:56:53.000Z</time>
      </trkpt>
      <trkpt lat="50.931541" lon="0.805779">
        <ele>3.094531</ele>
        <time>2022-05-22T09:56:54.000Z</time>
      </trkpt>
      <trkpt lat="50.931506" lon="0.805855">
        <ele>3.063661</ele>
        <time>2022-05-22T09:56:55.000Z</time>
      </trkpt>
      <trkpt lat="50.931418" lon="0.806209">
        <ele>2.944997</ele>
        <time>2022-05-22T09:56:58.000Z</time>
      </trkpt>
      <trkpt lat="50.931368" lon="0.806395">
        <ele>2.889498</ele>
        <time>2022-05-22T09:56:59.000Z</time>
      </trkpt>
      <trkpt lat="50.931302" lon="0.806752">
        <ele>2.782381</ele>
        <time>2022-05-22T09:57:02.000Z</time>
      </trkpt>
      <trkpt lat="50.930862" lon="0.809265">
        <ele>2.08583</ele>
        <time>2022-05-22T09:57:20.000Z</time>
      </trkpt>
      <trkpt lat="50.930501" lon="0.812048">
        <ele>1.872419</ele>
        <time>2022-05-22T09:57:40.000Z</time>
      </trkpt>
      <trkpt lat="50.930488" lon="0.812278">
        <ele>1.921544</ele>
        <time>2022-05-22T09:57:42.000Z</time>
      </trkpt>
      <trkpt lat="50.930483" lon="0.81252">
        <ele>1.975116</ele>
        <time>2022-05-22T09:57:44.000Z</time>
      </trkpt>
      <trkpt lat="50.930442" lon="0.81357">
        <ele>2.204389</ele>
        <time>2022-05-22T09:57:51.000Z</time>
      </trkpt>
      <trkpt lat="50.930375" lon="0.81428">
        <ele>2.357587</ele>
        <time>2022-05-22T09:57:56.000Z</time>
      </trkpt>
      <trkpt lat="50.930349" lon="0.814499">
        <ele>2.406239</ele>
        <time>2022-05-22T09:57:58.000Z</time>
      </trkpt>
      <trkpt lat="50.930295" lon="0.814773">
        <ele>2.480615</ele>
        <time>2022-05-22T09:58:00.000Z</time>
      </trkpt>
      <trkpt lat="50.930023" lon="0.816591">
        <ele>2.968822</ele>
        <time>2022-05-22T09:58:13.000Z</time>
      </trkpt>
      <trkpt lat="50.929931" lon="0.817121">
        <ele>3.10994</ele>
        <time>2022-05-22T09:58:17.000Z</time>
      </trkpt>
      <trkpt lat="50.929819" lon="0.81785">
        <ele>3.11422</ele>
        <time>2022-05-22T09:58:22.000Z</time>
      </trkpt>
      <trkpt lat="50.929569" lon="0.819349">
        <ele>2.957671</ele>
        <time>2022-05-22T09:58:33.000Z</time>
      </trkpt>
      <trkpt lat="50.929258" lon="0.820496">
        <ele>2.793885</ele>
        <time>2022-05-22T09:58:42.000Z</time>
      </trkpt>
      <trkpt lat="50.929235" lon="0.820642">
        <ele>2.765338</ele>
        <time>2022-05-22T09:58:43.000Z</time>
      </trkpt>
      <trkpt lat="50.929178" lon="0.820868">
        <ele>2.723503</ele>
        <time>2022-05-22T09:58:45.000Z</time>
      </trkpt>
      <trkpt lat="50.929155" lon="0.821047">
        <ele>2.687982</ele>
        <time>2022-05-22T09:58:46.000Z</time>
      </trkpt>
      <trkpt lat="50.929129" lon="0.821173">
        <ele>2.663837</ele>
        <time>2022-05-22T09:58:47.000Z</time>
      </trkpt>
      <trkpt lat="50.929109" lon="0.821305">
        <ele>2.642165</ele>
        <time>2022-05-22T09:58:48.000Z</time>
      </trkpt>
      <trkpt lat="50.928156" lon="0.826858">
        <ele>2.066597</ele>
        <time>2022-05-22T09:59:28.000Z</time>
      </trkpt>
      <trkpt lat="50.928164" lon="0.826893">
        <ele>2.065004</ele>
        <time>2022-05-22T09:59:28.000Z</time>
      </trkpt>
      <trkpt lat="50.928022" lon="0.827654">
        <ele>2.03522</ele>
        <time>2022-05-22T09:59:34.000Z</time>
      </trkpt>
      <trkpt lat="50.927871" lon="0.828367">
        <ele>2.011514</ele>
        <time>2022-05-22T09:59:39.000Z</time>
      </trkpt>
      <trkpt lat="50.92781" lon="0.828722">
        <ele>2.018355</ele>
        <time>2022-05-22T09:59:42.000Z</time>
      </trkpt>
      <trkpt lat="50.927752" lon="0.829053">
        <ele>2.024276</ele>
        <time>2022-05-22T09:59:44.000Z</time>
      </trkpt>
      <trkpt lat="50.92772" lon="0.829259">
        <ele>2.028259</ele>
        <time>2022-05-22T09:59:45.000Z</time>
      </trkpt>
      <trkpt lat="50.927681" lon="0.829451">
        <ele>2.031659</ele>
        <time>2022-05-22T09:59:46.000Z</time>
      </trkpt>
      <trkpt lat="50.927626" lon="0.830258">
        <ele>2.046535</ele>
        <time>2022-05-22T09:59:52.000Z</time>
      </trkpt>
      <trkpt lat="50.927639" lon="0.830553">
        <ele>2.05185</ele>
        <time>2022-05-22T09:59:54.000Z</time>
      </trkpt>
      <trkpt lat="50.927654" lon="0.830743">
        <ele>2.0554</ele>
        <time>2022-05-22T09:59:55.000Z</time>
      </trkpt>
      <trkpt lat="50.927736" lon="0.831168">
        <ele>2.075262</ele>
        <time>2022-05-22T09:59:58.000Z</time>
      </trkpt>
      <trkpt lat="50.927937" lon="0.831608">
        <ele>2.144563</ele>
        <time>2022-05-22T10:00:02.000Z</time>
      </trkpt>
      <trkpt lat="50.929396" lon="0.833961">
        <ele>2.581371</ele>
        <time>2022-05-22T10:00:25.000Z</time>
      </trkpt>
      <trkpt lat="50.929662" lon="0.834537">
        <ele>2.677835</ele>
        <time>2022-05-22T10:00:30.000Z</time>
      </trkpt>
      <trkpt lat="50.930067" lon="0.836266">
        <ele>2.848683</ele>
        <time>2022-05-22T10:00:43.000Z</time>
      </trkpt>
      <trkpt lat="50.930273" lon="0.83676">
        <ele>2.872883</ele>
        <time>2022-05-22T10:00:47.000Z</time>
      </trkpt>
      <trkpt lat="50.931946" lon="0.840233">
        <ele>2.775242</ele>
        <time>2022-05-22T10:01:18.000Z</time>
      </trkpt>
      <trkpt lat="50.932156" lon="0.840743">
        <ele>2.738026</ele>
        <time>2022-05-22T10:01:22.000Z</time>
      </trkpt>
      <trkpt lat="50.932286" lon="0.841173">
        <ele>2.708892</ele>
        <time>2022-05-22T10:01:25.000Z</time>
      </trkpt>
      <trkpt lat="50.932444" lon="0.841927">
        <ele>2.661354</ele>
        <time>2022-05-22T10:01:31.000Z</time>
      </trkpt>
      <trkpt lat="50.932579" lon="0.842244">
        <ele>2.638344</ele>
        <time>2022-05-22T10:01:34.000Z</time>
      </trkpt>
      <trkpt lat="50.933738" lon="0.84541">
        <ele>2.696889</ele>
        <time>2022-05-22T10:02:00.000Z</time>
      </trkpt>
      <trkpt lat="50.933894" lon="0.846542">
        <ele>2.94038</ele>
        <time>2022-05-22T10:02:08.000Z</time>
      </trkpt>
      <trkpt lat="50.934118" lon="0.848275">
        <ele>3.238736</ele>
        <time>2022-05-22T10:02:20.000Z</time>
      </trkpt>
      <trkpt lat="50.934238" lon="0.848745">
        <ele>3.239002</ele>
        <time>2022-05-22T10:02:24.000Z</time>
      </trkpt>
      <trkpt lat="50.934754" lon="0.850253">
        <ele>3.239895</ele>
        <time>2022-05-22T10:02:36.000Z</time>
      </trkpt>
      <trkpt lat="50.934831" lon="0.850529">
        <ele>3.228785</ele>
        <time>2022-05-22T10:02:38.000Z</time>
      </trkpt>
      <trkpt lat="50.934842" lon="0.850556">
        <ele>3.22057</ele>
        <time>2022-05-22T10:02:38.000Z</time>
      </trkpt>
      <trkpt lat="50.934936" lon="0.850941">
        <ele>3.0615</ele>
        <time>2022-05-22T10:02:41.000Z</time>
      </trkpt>
      <trkpt lat="50.934953" lon="0.851079">
        <ele>3.006565</ele>
        <time>2022-05-22T10:02:42.000Z</time>
      </trkpt>
      <trkpt lat="50.934962" lon="0.851142">
        <ele>2.977964</ele>
        <time>2022-05-22T10:02:42.000Z</time>
      </trkpt>
      <trkpt lat="50.935024" lon="0.852681">
        <ele>2.386041</ele>
        <time>2022-05-22T10:02:53.000Z</time>
      </trkpt>
      <trkpt lat="50.934993" lon="0.853621">
        <ele>2.11871</ele>
        <time>2022-05-22T10:03:00.000Z</time>
      </trkpt>
      <trkpt lat="50.934763" lon="0.854426">
        <ele>2.058704</ele>
        <time>2022-05-22T10:03:06.000Z</time>
      </trkpt>
      <trkpt lat="50.933804" lon="0.856391">
        <ele>2.095119</ele>
        <time>2022-05-22T10:03:23.000Z</time>
      </trkpt>
      <trkpt lat="50.933699" lon="0.856748">
        <ele>2.170361</ele>
        <time>2022-05-22T10:03:26.000Z</time>
      </trkpt>
      <trkpt lat="50.933448" lon="0.858431">
        <ele>2.482109</ele>
        <time>2022-05-22T10:03:38.000Z</time>
      </trkpt>
      <trkpt lat="50.933433" lon="0.858874">
        <ele>2.538378</ele>
        <time>2022-05-22T10:03:41.000Z</time>
      </trkpt>
      <trkpt lat="50.933501" lon="0.859212">
        <ele>2.582004</ele>
        <time>2022-05-22T10:03:43.000Z</time>
      </trkpt>
      <trkpt lat="50.933547" lon="0.859406">
        <ele>2.608998</ele>
        <time>2022-05-22T10:03:44.000Z</time>
      </trkpt>
      <trkpt lat="50.933649" lon="0.859651">
        <ele>2.644851</ele>
        <time>2022-05-22T10:03:46.000Z</time>
      </trkpt>
      <trkpt lat="50.933858" lon="0.860005">
        <ele>2.706611</ele>
        <time>2022-05-22T10:03:49.000Z</time>
      </trkpt>
      <trkpt lat="50.934603" lon="0.860958">
        <ele>2.80099</ele>
        <time>2022-05-22T10:04:00.000Z</time>
      </trkpt>
      <trkpt lat="50.934843" lon="0.861412">
        <ele>2.767498</ele>
        <time>2022-05-22T10:04:04.000Z</time>
      </trkpt>
      <trkpt lat="50.93499" lon="0.861843">
        <ele>2.740479</ele>
        <time>2022-05-22T10:04:07.000Z</time>
      </trkpt>
      <trkpt lat="50.935046" lon="0.862529">
        <ele>2.701962</ele>
        <time>2022-05-22T10:04:12.000Z</time>
      </trkpt>
      <trkpt lat="50.934991" lon="0.863818">
        <ele>2.630523</ele>
        <time>2022-05-22T10:04:21.000Z</time>
      </trkpt>
      <trkpt lat="50.935155" lon="0.864197">
        <ele>2.606429</ele>
        <time>2022-05-22T10:04:24.000Z</time>
      </trkpt>
      <trkpt lat="50.93585" lon="0.864966">
        <ele>2.533351</ele>
        <time>2022-05-22T10:04:33.000Z</time>
      </trkpt>
      <trkpt lat="50.936307" lon="0.865564">
        <ele>2.512492</ele>
        <time>2022-05-22T10:04:40.000Z</time>
      </trkpt>
      <trkpt lat="50.936592" lon="0.866173">
        <ele>2.508245</ele>
        <time>2022-05-22T10:04:45.000Z</time>
      </trkpt>
      <trkpt lat="50.936874" lon="0.867554">
        <ele>2.50015</ele>
        <time>2022-05-22T10:04:55.000Z</time>
      </trkpt>
      <trkpt lat="50.9378" lon="0.869359">
        <ele>2.548164</ele>
        <time>2022-05-22T10:05:11.000Z</time>
      </trkpt>
      <trkpt lat="50.938932" lon="0.870766">
        <ele>2.67068</ele>
        <time>2022-05-22T10:05:27.000Z</time>
      </trkpt>
      <trkpt lat="50.939071" lon="0.870967">
        <ele>2.68937</ele>
        <time>2022-05-22T10:05:29.000Z</time>
      </trkpt>
      <trkpt lat="50.939331" lon="0.871381">
        <ele>2.726987</ele>
        <time>2022-05-22T10:05:33.000Z</time>
      </trkpt>
      <trkpt lat="50.940074" lon="0.873265">
        <ele>2.890938</ele>
        <time>2022-05-22T10:05:49.000Z</time>
      </trkpt>
      <trkpt lat="50.940265" lon="0.873923">
        <ele>2.943696</ele>
        <time>2022-05-22T10:05:54.000Z</time>
      </trkpt>
      <trkpt lat="50.940355" lon="0.874297">
        <ele>2.938867</ele>
        <time>2022-05-22T10:05:57.000Z</time>
      </trkpt>
      <trkpt lat="50.940521" lon="0.874693">
        <ele>2.911157</ele>
        <time>2022-05-22T10:06:00.000Z</time>
      </trkpt>
      <trkpt lat="50.941487" lon="0.876294">
        <ele>2.775584</ele>
        <time>2022-05-22T10:06:16.000Z</time>
      </trkpt>
      <trkpt lat="50.941917" lon="0.877265">
        <ele>2.65979</ele>
        <time>2022-05-22T10:06:24.000Z</time>
      </trkpt>
      <trkpt lat="50.942161" lon="0.877908">
        <ele>2.588597</ele>
        <time>2022-05-22T10:06:29.000Z</time>
      </trkpt>
      <trkpt lat="50.94265" lon="0.880238">
        <ele>2.641902</ele>
        <time>2022-05-22T10:06:46.000Z</time>
      </trkpt>
      <trkpt lat="50.942877" lon="0.880727">
        <ele>2.690205</ele>
        <time>2022-05-22T10:06:50.000Z</time>
      </trkpt>
      <trkpt lat="50.943281" lon="0.881356">
        <ele>2.733261</ele>
        <time>2022-05-22T10:06:56.000Z</time>
      </trkpt>
      <trkpt lat="50.943372" lon="0.881497">
        <ele>2.72875</ele>
        <time>2022-05-22T10:06:57.000Z</time>
      </trkpt>
      <trkpt lat="50.943768" lon="0.882222">
        <ele>2.708348</ele>
        <time>2022-05-22T10:07:04.000Z</time>
      </trkpt>
      <trkpt lat="50.943837" lon="0.88238">
        <ele>2.703922</ele>
        <time>2022-05-22T10:07:05.000Z</time>
      </trkpt>
      <trkpt lat="50.943848" lon="0.882433">
        <ele>2.702557</ele>
        <time>2022-05-22T10:07:05.000Z</time>
      </trkpt>
      <trkpt lat="50.943912" lon="0.882675">
        <ele>2.697025</ele>
        <time>2022-05-22T10:07:07.000Z</time>
      </trkpt>
      <trkpt lat="50.943928" lon="0.882718">
        <ele>2.69598</ele>
        <time>2022-05-22T10:07:07.000Z</time>
      </trkpt>
      <trkpt lat="50.943984" lon="0.883024">
        <ele>2.689193</ele>
        <time>2022-05-22T10:07:09.000Z</time>
      </trkpt>
      <trkpt lat="50.944073" lon="0.883689">
        <ele>2.651188</ele>
        <time>2022-05-22T10:07:14.000Z</time>
      </trkpt>
      <trkpt lat="50.944247" lon="0.885574">
        <ele>2.299249</ele>
        <time>2022-05-22T10:07:27.000Z</time>
      </trkpt>
      <trkpt lat="50.944352" lon="0.886101">
        <ele>2.19787</ele>
        <time>2022-05-22T10:07:31.000Z</time>
      </trkpt>
      <trkpt lat="50.944911" lon="0.887251">
        <ele>2.238121</ele>
        <time>2022-05-22T10:07:41.000Z</time>
      </trkpt>
      <trkpt lat="50.945324" lon="0.888613">
        <ele>2.349822</ele>
        <time>2022-05-22T10:07:52.000Z</time>
      </trkpt>
      <trkpt lat="50.946042" lon="0.889967">
        <ele>2.691087</ele>
        <time>2022-05-22T10:08:04.000Z</time>
      </trkpt>
      <trkpt lat="50.946237" lon="0.890502">
        <ele>2.816689</ele>
        <time>2022-05-22T10:08:08.000Z</time>
      </trkpt>
      <trkpt lat="50.946331" lon="0.8909">
        <ele>2.907137</ele>
        <time>2022-05-22T10:08:11.000Z</time>
      </trkpt>
      <trkpt lat="50.946366" lon="0.891014">
        <ele>2.932427</ele>
        <time>2022-05-22T10:08:12.000Z</time>
      </trkpt>
      <trkpt lat="50.946398" lon="0.891639">
        <ele>3.017597</ele>
        <time>2022-05-22T10:08:16.000Z</time>
      </trkpt>
      <trkpt lat="50.946365" lon="0.891798">
        <ele>3.036796</ele>
        <time>2022-05-22T10:08:17.000Z</time>
      </trkpt>
      <trkpt lat="50.946322" lon="0.891961">
        <ele>3.061953</ele>
        <time>2022-05-22T10:08:18.000Z</time>
      </trkpt>
      <trkpt lat="50.945899" lon="0.892925">
        <ele>3.209966</ele>
        <time>2022-05-22T10:08:26.000Z</time>
      </trkpt>
      <trkpt lat="50.945899" lon="0.893342">
        <ele>3.264229</ele>
        <time>2022-05-22T10:08:29.000Z</time>
      </trkpt>
      <trkpt lat="50.945921" lon="0.893426">
        <ele>3.275396</ele>
        <time>2022-05-22T10:08:30.000Z</time>
      </trkpt>
      <trkpt lat="50.945998" lon="0.893653">
        <ele>3.307912</ele>
        <time>2022-05-22T10:08:32.000Z</time>
      </trkpt>
      <trkpt lat="50.946267" lon="0.894165">
        <ele>3.433926</ele>
        <time>2022-05-22T10:08:37.000Z</time>
      </trkpt>
      <trkpt lat="50.946426" lon="0.894445">
        <ele>3.509816</ele>
        <time>2022-05-22T10:08:40.000Z</time>
      </trkpt>
      <trkpt lat="50.946761" lon="0.89505">
        <ele>3.669342</ele>
        <time>2022-05-22T10:08:46.000Z</time>
      </trkpt>
      <trkpt lat="50.947125" lon="0.89562">
        <ele>3.826734</ele>
        <time>2022-05-22T10:08:52.000Z</time>
      </trkpt>
      <trkpt lat="50.947181" lon="0.895763">
        <ele>3.862951</ele>
        <time>2022-05-22T10:08:53.000Z</time>
      </trkpt>
      <trkpt lat="50.947251" lon="0.895932">
        <ele>3.916458</ele>
        <time>2022-05-22T10:08:54.000Z</time>
      </trkpt>
      <trkpt lat="50.947403" lon="0.896679">
        <ele>4.153727</ele>
        <time>2022-05-22T10:08:59.000Z</time>
      </trkpt>
      <trkpt lat="50.947411" lon="0.896792">
        <ele>4.184333</ele>
        <time>2022-05-22T10:09:00.000Z</time>
      </trkpt>
      <trkpt lat="50.947395" lon="0.897094">
        <ele>4.27748</ele>
        <time>2022-05-22T10:09:02.000Z</time>
      </trkpt>
      <trkpt lat="50.94738" lon="0.897092">
        <ele>4.277476</ele>
        <time>2022-05-22T10:09:02.000Z</time>
      </trkpt>
      <trkpt lat="50.947326" lon="0.897497">
        <ele>4.401679</ele>
        <time>2022-05-22T10:09:05.000Z</time>
      </trkpt>
      <trkpt lat="50.947245" lon="0.898055">
        <ele>4.575983</ele>
        <time>2022-05-22T10:09:09.000Z</time>
      </trkpt>
      <trkpt lat="50.947244" lon="0.898161">
        <ele>4.609353</ele>
        <time>2022-05-22T10:09:10.000Z</time>
      </trkpt>
      <trkpt lat="50.947154" lon="0.898995">
        <ele>4.719823</ele>
        <time>2022-05-22T10:09:16.000Z</time>
      </trkpt>
      <trkpt lat="50.947029" lon="0.900177">
        <ele>4.689356</ele>
        <time>2022-05-22T10:09:24.000Z</time>
      </trkpt>
      <trkpt lat="50.946906" lon="0.901395">
        <ele>4.657984</ele>
        <time>2022-05-22T10:09:33.000Z</time>
      </trkpt>
      <trkpt lat="50.946817" lon="0.902255">
        <ele>4.660984</ele>
        <time>2022-05-22T10:09:39.000Z</time>
      </trkpt>
      <trkpt lat="50.946735" lon="0.903153">
        <ele>4.664034</ele>
        <time>2022-05-22T10:09:45.000Z</time>
      </trkpt>
      <trkpt lat="50.946635" lon="0.90426">
        <ele>4.66408</ele>
        <time>2022-05-22T10:09:53.000Z</time>
      </trkpt>
      <trkpt lat="50.946546" lon="0.905341">
        <ele>4.585215</ele>
        <time>2022-05-22T10:10:01.000Z</time>
      </trkpt>
      <trkpt lat="50.946507" lon="0.905843">
        <ele>4.54938</ele>
        <time>2022-05-22T10:10:05.000Z</time>
      </trkpt>
      <trkpt lat="50.946461" lon="0.906266">
        <ele>4.519223</ele>
        <time>2022-05-22T10:10:08.000Z</time>
      </trkpt>
      <trkpt lat="50.946333" lon="0.906683">
        <ele>4.485745</ele>
        <time>2022-05-22T10:10:11.000Z</time>
      </trkpt>
      <trkpt lat="50.94617" lon="0.90736">
        <ele>4.330425</ele>
        <time>2022-05-22T10:10:16.000Z</time>
      </trkpt>
      <trkpt lat="50.945922" lon="0.907971">
        <ele>4.107851</ele>
        <time>2022-05-22T10:10:21.000Z</time>
      </trkpt>
      <trkpt lat="50.945817" lon="0.908254">
        <ele>4.007275</ele>
        <time>2022-05-22T10:10:23.000Z</time>
      </trkpt>
      <trkpt lat="50.945748" lon="0.908369">
        <ele>3.956743</ele>
        <time>2022-05-22T10:10:24.000Z</time>
      </trkpt>
      <trkpt lat="50.945651" lon="0.908444">
        <ele>3.905506</ele>
        <time>2022-05-22T10:10:25.000Z</time>
      </trkpt>
      <trkpt lat="50.945595" lon="0.908448">
        <ele>3.875087</ele>
        <time>2022-05-22T10:10:26.000Z</time>
      </trkpt>
      <trkpt lat="50.945254" lon="0.90824">
        <ele>3.692298</ele>
        <time>2022-05-22T10:10:30.000Z</time>
      </trkpt>
      <trkpt lat="50.944974" lon="0.908054">
        <ele>3.573007</ele>
        <time>2022-05-22T10:10:33.000Z</time>
      </trkpt>
      <trkpt lat="50.944638" lon="0.907876">
        <ele>3.5522</ele>
        <time>2022-05-22T10:10:37.000Z</time>
      </trkpt>
      <trkpt lat="50.944288" lon="0.907595">
        <ele>3.529554</ele>
        <time>2022-05-22T10:10:41.000Z</time>
      </trkpt>
      <trkpt lat="50.944257" lon="0.90758">
        <ele>3.527845</ele>
        <time>2022-05-22T10:10:41.000Z</time>
      </trkpt>
      <trkpt lat="50.943952" lon="0.90745">
        <ele>3.510066</ele>
        <time>2022-05-22T10:10:45.000Z</time>
      </trkpt>
      <trkpt lat="50.943931" lon="0.907436">
        <ele>3.50832</ele>
        <time>2022-05-22T10:10:45.000Z</time>
      </trkpt>
      <trkpt lat="50.943646" lon="0.907354">
        <ele>3.491867</ele>
        <time>2022-05-22T10:10:48.000Z</time>
      </trkpt>
      <trkpt lat="50.943173" lon="0.907312">
        <ele>3.451584</ele>
        <time>2022-05-22T10:10:53.000Z</time>
      </trkpt>
      <trkpt lat="50.942335" lon="0.907281">
        <ele>3.32832</ele>
        <time>2022-05-22T10:11:02.000Z</time>
      </trkpt>
      <trkpt lat="50.941785" lon="0.90735">
        <ele>3.244615</ele>
        <time>2022-05-22T10:11:08.000Z</time>
      </trkpt>
      <trkpt lat="50.941523" lon="0.907475">
        <ele>3.192456</ele>
        <time>2022-05-22T10:11:11.000Z</time>
      </trkpt>
      <trkpt lat="50.941436" lon="0.90755">
        <ele>3.123739</ele>
        <time>2022-05-22T10:11:12.000Z</time>
      </trkpt>
      <trkpt lat="50.941203" lon="0.907732">
        <ele>2.93907</ele>
        <time>2022-05-22T10:11:15.000Z</time>
      </trkpt>
      <trkpt lat="50.941012" lon="0.907854">
        <ele>2.802112</ele>
        <time>2022-05-22T10:11:17.000Z</time>
      </trkpt>
      <trkpt lat="50.940791" lon="0.908008">
        <ele>2.622895</ele>
        <time>2022-05-22T10:11:20.000Z</time>
      </trkpt>
      <trkpt lat="50.940352" lon="0.908207">
        <ele>2.297609</ele>
        <time>2022-05-22T10:11:25.000Z</time>
      </trkpt>
      <trkpt lat="50.9397" lon="0.908421">
        <ele>1.885591</ele>
        <time>2022-05-22T10:11:32.000Z</time>
      </trkpt>
      <trkpt lat="50.937368" lon="0.909179">
        <ele>1.15189219922</ele>
        <time>2022-05-22T10:11:58.000Z</time>
      </trkpt>
      <trkpt lat="50.935795" lon="0.909781">
        <ele>0.65315647205</ele>
        <time>2022-05-22T10:12:16.000Z</time>
      </trkpt>
      <trkpt lat="50.935589" lon="0.909878">
        <ele>0.586926028927</ele>
        <time>2022-05-22T10:12:18.000Z</time>
      </trkpt>
      <trkpt lat="50.935582" lon="0.909889">
        <ele>0.583889533273</ele>
        <time>2022-05-22T10:12:18.000Z</time>
      </trkpt>
    </trkseg>
  </trk>
</gpx>

<!--
Performance optimized by W3 Total Cache. Learn more: https://www.boldgrid.com/w3-total-cache/?utm_source=w3tc&utm_medium=footer_comment&utm_campaign=free_plugin

Page Caching using Disk: Enhanced{w3tc_pagecache_reject_reason} 

Served from: www.aquabike.world @ 2026-05-10 18:49:33 by W3 Total Cache
-->